<?xml version="1.0" encoding="UTF-8" standalone="no" ?><gpx xmlns="http://www.topografix.com/GPX/1/1" xmlns:gpxx="http://www.garmin.com/xmlschemas/GpxExtensions/v3" xmlns:wptx1="http://www.garmin.com/xmlschemas/WaypointExtension/v1" xmlns:gpxtpx="http://www.garmin.com/xmlschemas/TrackPointExtension/v1" creator="GuideVTT.com" version="1.1" xmlns:xsi="http://www.w3.org/2001/XMLSchema-instance" xsi:schemaLocation="http://www.topografix.com/GPX/1/1 http://www.topografix.com/GPX/1/1/gpx.xsd http://www.garmin.com/xmlschemas/GpxExtensions/v3 http://www8.garmin.com/xmlschemas/GpxExtensionsv3.xsd http://www.garmin.com/xmlschemas/WaypointExtension/v1 http://www8.garmin.com/xmlschemas/WaypointExtensionv1.xsd http://www.garmin.com/xmlschemas/TrackPointExtension/v1 http://www.garmin.com/xmlschemas/TrackPointExtensionv1.xsd">
<metadata><link href="http://www.garmin.com"><text>Garmin International</text></link><time>2013-06-22T15:13:50Z</time></metadata>
<trk><name>bex-pont-de-nant030809.gpx</name><extensions><gpxx:TrackExtension><gpxx:DisplayColor>Cyan</gpxx:DisplayColor></gpxx:TrackExtension></extensions><trkseg>
<trkpt lat="46.24612427" lon="7.01257992"><ele></ele><time>2014-6-1T19:19:10Z</time></trkpt>
<trkpt lat="46.24612045" lon="7.01257896"><ele></ele><time>2014-6-1T19:19:13Z</time></trkpt>
<trkpt lat="46.24605560" lon="7.01266193"><ele></ele><time>2014-6-1T19:19:16Z</time></trkpt>
<trkpt lat="46.24598312" lon="7.01294804"><ele></ele><time>2014-6-1T19:19:19Z</time></trkpt>
<trkpt lat="46.24583054" lon="7.01333714"><ele></ele><time>2014-6-1T19:19:22Z</time></trkpt>
<trkpt lat="46.24569321" lon="7.01373911"><ele></ele><time>2014-6-1T19:19:25Z</time></trkpt>
<trkpt lat="46.24555588" lon="7.01416492"><ele></ele><time>2014-6-1T19:19:28Z</time></trkpt>
<trkpt lat="46.24546051" lon="7.01463318"><ele></ele><time>2014-6-1T19:19:31Z</time></trkpt>
<trkpt lat="46.24541473" lon="7.01499605"><ele></ele><time>2014-6-1T19:19:34Z</time></trkpt>
<trkpt lat="46.24537659" lon="7.01534414"><ele></ele><time>2014-6-1T19:19:37Z</time></trkpt>
<trkpt lat="46.24531555" lon="7.01594782"><ele></ele><time>2014-6-1T19:19:40Z</time></trkpt>
<trkpt lat="46.24523544" lon="7.01684523"><ele></ele><time>2014-6-1T19:19:43Z</time></trkpt>
<trkpt lat="46.24517822" lon="7.01749611"><ele></ele><time>2014-6-1T19:19:46Z</time></trkpt>
<trkpt lat="46.24509811" lon="7.01825905"><ele></ele><time>2014-6-1T19:19:49Z</time></trkpt>
<trkpt lat="46.24503708" lon="7.01883221"><ele></ele><time>2014-6-1T19:19:52Z</time></trkpt>
<trkpt lat="46.24496841" lon="7.01948977"><ele></ele><time>2014-6-1T19:19:55Z</time></trkpt>
<trkpt lat="46.24491119" lon="7.02002287"><ele></ele><time>2014-6-1T19:19:58Z</time></trkpt>
<trkpt lat="46.24486923" lon="7.02049303"><ele></ele><time>2014-6-1T19:20:1Z</time></trkpt>
<trkpt lat="46.24481583" lon="7.02100897"><ele></ele><time>2014-6-1T19:20:4Z</time></trkpt>
<trkpt lat="46.24477005" lon="7.02157402"><ele></ele><time>2014-6-1T19:20:7Z</time></trkpt>
<trkpt lat="46.24480438" lon="7.02195406"><ele></ele><time>2014-6-1T19:20:10Z</time></trkpt>
<trkpt lat="46.24487686" lon="7.02234221"><ele></ele><time>2014-6-1T19:20:13Z</time></trkpt>
<trkpt lat="46.24491501" lon="7.02258205"><ele></ele><time>2014-6-1T19:20:16Z</time></trkpt>
<trkpt lat="46.24492645" lon="7.02276611"><ele></ele><time>2014-6-1T19:20:19Z</time></trkpt>
<trkpt lat="46.24503708" lon="7.02288198"><ele></ele><time>2014-6-1T19:20:22Z</time></trkpt>
<trkpt lat="46.24509048" lon="7.02287102"><ele></ele><time>2014-6-1T19:20:25Z</time></trkpt>
<trkpt lat="46.24533081" lon="7.02277422"><ele></ele><time>2014-6-1T19:20:28Z</time></trkpt>
<trkpt lat="46.24562836" lon="7.02265692"><ele></ele><time>2014-6-1T19:20:31Z</time></trkpt>
<trkpt lat="46.24610138" lon="7.02248383"><ele></ele><time>2014-6-1T19:20:34Z</time></trkpt>
<trkpt lat="46.24695587" lon="7.02216578"><ele></ele><time>2014-6-1T19:20:37Z</time></trkpt>
<trkpt lat="46.24719620" lon="7.02208900"><ele></ele><time>2014-6-1T19:20:40Z</time></trkpt>
<trkpt lat="46.24751282" lon="7.02210379"><ele></ele><time>2014-6-1T19:20:43Z</time></trkpt>
<trkpt lat="46.24793625" lon="7.02236986"><ele></ele><time>2014-6-1T19:20:46Z</time></trkpt>
<trkpt lat="46.24807358" lon="7.02245378"><ele></ele><time>2014-6-1T19:20:49Z</time></trkpt>
<trkpt lat="46.24835968" lon="7.02251816"><ele></ele><time>2014-6-1T19:20:52Z</time></trkpt>
<trkpt lat="46.24849701" lon="7.02253723"><ele></ele><time>2014-6-1T19:20:55Z</time></trkpt>
<trkpt lat="46.24868774" lon="7.02243805"><ele></ele><time>2014-6-1T19:20:58Z</time></trkpt>
<trkpt lat="46.24873734" lon="7.02235079"><ele></ele><time>2014-6-1T19:21:1Z</time></trkpt>
<trkpt lat="46.24917984" lon="7.02179098"><ele></ele><time>2014-6-1T19:21:4Z</time></trkpt>
<trkpt lat="46.24949265" lon="7.02128220"><ele></ele><time>2014-6-1T19:21:7Z</time></trkpt>
<trkpt lat="46.24960709" lon="7.02104282"><ele></ele><time>2014-6-1T19:21:10Z</time></trkpt>
<trkpt lat="46.24994659" lon="7.02065897"><ele></ele><time>2014-6-1T19:21:13Z</time></trkpt>
<trkpt lat="46.25016785" lon="7.02056408"><ele></ele><time>2014-6-1T19:21:16Z</time></trkpt>
<trkpt lat="46.25046921" lon="7.02063799"><ele></ele><time>2014-6-1T19:21:19Z</time></trkpt>
<trkpt lat="46.25051117" lon="7.02082586"><ele></ele><time>2014-6-1T19:21:22Z</time></trkpt>
<trkpt lat="46.25068665" lon="7.02160883"><ele></ele><time>2014-6-1T19:21:25Z</time></trkpt>
<trkpt lat="46.25085831" lon="7.02215099"><ele></ele><time>2014-6-1T19:21:28Z</time></trkpt>
<trkpt lat="46.25096130" lon="7.02236223"><ele></ele><time>2014-6-1T19:21:31Z</time></trkpt>
<trkpt lat="46.25111008" lon="7.02252579"><ele></ele><time>2014-6-1T19:21:34Z</time></trkpt>
<trkpt lat="46.25140381" lon="7.02262020"><ele></ele><time>2014-6-1T19:21:37Z</time></trkpt>
<trkpt lat="46.25162888" lon="7.02260590"><ele></ele><time>2014-6-1T19:21:40Z</time></trkpt>
<trkpt lat="46.25190353" lon="7.02273417"><ele></ele><time>2014-6-1T19:21:43Z</time></trkpt>
<trkpt lat="46.25217438" lon="7.02290106"><ele></ele><time>2014-6-1T19:21:46Z</time></trkpt>
<trkpt lat="46.25242996" lon="7.02310419"><ele></ele><time>2014-6-1T19:21:49Z</time></trkpt>
<trkpt lat="46.25260544" lon="7.02336884"><ele></ele><time>2014-6-1T19:21:52Z</time></trkpt>
<trkpt lat="46.25275040" lon="7.02376699"><ele></ele><time>2014-6-1T19:21:55Z</time></trkpt>
<trkpt lat="46.25289154" lon="7.02414417"><ele></ele><time>2014-6-1T19:21:58Z</time></trkpt>
<trkpt lat="46.25312042" lon="7.02451277"><ele></ele><time>2014-6-1T19:22:1Z</time></trkpt>
<trkpt lat="46.25337982" lon="7.02499390"><ele></ele><time>2014-6-1T19:22:4Z</time></trkpt>
<trkpt lat="46.25354385" lon="7.02543306"><ele></ele><time>2014-6-1T19:22:7Z</time></trkpt>
<trkpt lat="46.25363159" lon="7.02596903"><ele></ele><time>2014-6-1T19:22:10Z</time></trkpt>
<trkpt lat="46.25373459" lon="7.02654123"><ele></ele><time>2014-6-1T19:22:13Z</time></trkpt>
<trkpt lat="46.25387955" lon="7.02684212"><ele></ele><time>2014-6-1T19:22:16Z</time></trkpt>
<trkpt lat="46.25407028" lon="7.02700901"><ele></ele><time>2014-6-1T19:22:19Z</time></trkpt>
<trkpt lat="46.25410843" lon="7.02703094"><ele></ele><time>2014-6-1T19:22:22Z</time></trkpt>
<trkpt lat="46.25439453" lon="7.02725792"><ele></ele><time>2014-6-1T19:22:25Z</time></trkpt>
<trkpt lat="46.25463486" lon="7.02765799"><ele></ele><time>2014-6-1T19:22:28Z</time></trkpt>
<trkpt lat="46.25487518" lon="7.02794218"><ele></ele><time>2014-6-1T19:22:31Z</time></trkpt>
<trkpt lat="46.25508499" lon="7.02822018"><ele></ele><time>2014-6-1T19:22:34Z</time></trkpt>
<trkpt lat="46.25526047" lon="7.02844095"><ele></ele><time>2014-6-1T19:22:37Z</time></trkpt>
<trkpt lat="46.25547791" lon="7.02872276"><ele></ele><time>2014-6-1T19:22:40Z</time></trkpt>
<trkpt lat="46.25573730" lon="7.02906799"><ele></ele><time>2014-6-1T19:22:43Z</time></trkpt>
<trkpt lat="46.25593185" lon="7.02932787"><ele></ele><time>2014-6-1T19:22:46Z</time></trkpt>
<trkpt lat="46.25613022" lon="7.02966309"><ele></ele><time>2014-6-1T19:22:49Z</time></trkpt>
<trkpt lat="46.25633240" lon="7.03003502"><ele></ele><time>2014-6-1T19:22:52Z</time></trkpt>
<trkpt lat="46.25656509" lon="7.03039694"><ele></ele><time>2014-6-1T19:22:55Z</time></trkpt>
<trkpt lat="46.25685883" lon="7.03072691"><ele></ele><time>2014-6-1T19:22:58Z</time></trkpt>
<trkpt lat="46.25714493" lon="7.03091097"><ele></ele><time>2014-6-1T19:23:1Z</time></trkpt>
<trkpt lat="46.25744629" lon="7.03095007"><ele></ele><time>2014-6-1T19:23:4Z</time></trkpt>
<trkpt lat="46.25781631" lon="7.03091908"><ele></ele><time>2014-6-1T19:23:7Z</time></trkpt>
<trkpt lat="46.25807953" lon="7.03090286"><ele></ele><time>2014-6-1T19:23:10Z</time></trkpt>
<trkpt lat="46.25833511" lon="7.03091478"><ele></ele><time>2014-6-1T19:23:13Z</time></trkpt>
<trkpt lat="46.25856018" lon="7.03095484"><ele></ele><time>2014-6-1T19:23:16Z</time></trkpt>
<trkpt lat="46.25889587" lon="7.03100777"><ele></ele><time>2014-6-1T19:23:19Z</time></trkpt>
<trkpt lat="46.25914764" lon="7.03105879"><ele></ele><time>2014-6-1T19:23:22Z</time></trkpt>
<trkpt lat="46.25958633" lon="7.03098822"><ele></ele><time>2014-6-1T19:23:25Z</time></trkpt>
<trkpt lat="46.26007080" lon="7.03080511"><ele></ele><time>2014-6-1T19:23:28Z</time></trkpt>
<trkpt lat="46.26034927" lon="7.03056622"><ele></ele><time>2014-6-1T19:23:31Z</time></trkpt>
<trkpt lat="46.26049805" lon="7.03039312"><ele></ele><time>2014-6-1T19:23:34Z</time></trkpt>
<trkpt lat="46.26074219" lon="7.02994919"><ele></ele><time>2014-6-1T19:23:37Z</time></trkpt>
<trkpt lat="46.26101303" lon="7.02944613"><ele></ele><time>2014-6-1T19:23:40Z</time></trkpt>
<trkpt lat="46.26111984" lon="7.02929306"><ele></ele><time>2014-6-1T19:23:43Z</time></trkpt>
<trkpt lat="46.26131058" lon="7.02917719"><ele></ele><time>2014-6-1T19:23:46Z</time></trkpt>
<trkpt lat="46.26142120" lon="7.02918816"><ele></ele><time>2014-6-1T19:23:49Z</time></trkpt>
<trkpt lat="46.26156235" lon="7.02930593"><ele></ele><time>2014-6-1T19:23:52Z</time></trkpt>
<trkpt lat="46.26170731" lon="7.02942610"><ele></ele><time>2014-6-1T19:23:55Z</time></trkpt>
<trkpt lat="46.26185226" lon="7.02948904"><ele></ele><time>2014-6-1T19:23:58Z</time></trkpt>
<trkpt lat="46.26198196" lon="7.02947617"><ele></ele><time>2014-6-1T19:24:1Z</time></trkpt>
<trkpt lat="46.26219177" lon="7.02940321"><ele></ele><time>2014-6-1T19:24:4Z</time></trkpt>
<trkpt lat="46.26232910" lon="7.02938318"><ele></ele><time>2014-6-1T19:24:7Z</time></trkpt>
<trkpt lat="46.26247406" lon="7.02939892"><ele></ele><time>2014-6-1T19:24:10Z</time></trkpt>
<trkpt lat="46.26261520" lon="7.02950478"><ele></ele><time>2014-6-1T19:24:13Z</time></trkpt>
<trkpt lat="46.26273727" lon="7.02962589"><ele></ele><time>2014-6-1T19:24:16Z</time></trkpt>
<trkpt lat="46.26288223" lon="7.02972317"><ele></ele><time>2014-6-1T19:24:19Z</time></trkpt>
<trkpt lat="46.26301575" lon="7.02974176"><ele></ele><time>2014-6-1T19:24:22Z</time></trkpt>
<trkpt lat="46.26321411" lon="7.02979422"><ele></ele><time>2014-6-1T19:24:25Z</time></trkpt>
<trkpt lat="46.26337433" lon="7.02990389"><ele></ele><time>2014-6-1T19:24:28Z</time></trkpt>
<trkpt lat="46.26347351" lon="7.03005791"><ele></ele><time>2014-6-1T19:24:31Z</time></trkpt>
<trkpt lat="46.26356506" lon="7.03020191"><ele></ele><time>2014-6-1T19:24:34Z</time></trkpt>
<trkpt lat="46.26362991" lon="7.03035116"><ele></ele><time>2014-6-1T19:24:37Z</time></trkpt>
<trkpt lat="46.26371002" lon="7.03058386"><ele></ele><time>2014-6-1T19:24:40Z</time></trkpt>
<trkpt lat="46.26379395" lon="7.03080082"><ele></ele><time>2014-6-1T19:24:43Z</time></trkpt>
<trkpt lat="46.26388168" lon="7.03093195"><ele></ele><time>2014-6-1T19:24:46Z</time></trkpt>
<trkpt lat="46.26395416" lon="7.03105688"><ele></ele><time>2014-6-1T19:24:49Z</time></trkpt>
<trkpt lat="46.26406479" lon="7.03114510"><ele></ele><time>2014-6-1T19:24:52Z</time></trkpt>
<trkpt lat="46.26419830" lon="7.03126621"><ele></ele><time>2014-6-1T19:24:55Z</time></trkpt>
<trkpt lat="46.26440048" lon="7.03138304"><ele></ele><time>2014-6-1T19:24:58Z</time></trkpt>
<trkpt lat="46.26458740" lon="7.03164482"><ele></ele><time>2014-6-1T19:25:1Z</time></trkpt>
<trkpt lat="46.26470947" lon="7.03181601"><ele></ele><time>2014-6-1T19:25:4Z</time></trkpt>
<trkpt lat="46.26483154" lon="7.03204203"><ele></ele><time>2014-6-1T19:25:7Z</time></trkpt>
<trkpt lat="46.26491547" lon="7.03224897"><ele></ele><time>2014-6-1T19:25:10Z</time></trkpt>
<trkpt lat="46.26498795" lon="7.03244019"><ele></ele><time>2014-6-1T19:25:13Z</time></trkpt>
<trkpt lat="46.26506042" lon="7.03259516"><ele></ele><time>2014-6-1T19:25:16Z</time></trkpt>
<trkpt lat="46.26510620" lon="7.03279686"><ele></ele><time>2014-6-1T19:25:19Z</time></trkpt>
<trkpt lat="46.26513290" lon="7.03298187"><ele></ele><time>2014-6-1T19:25:22Z</time></trkpt>
<trkpt lat="46.26516724" lon="7.03327703"><ele></ele><time>2014-6-1T19:25:25Z</time></trkpt>
<trkpt lat="46.26521683" lon="7.03350687"><ele></ele><time>2014-6-1T19:25:28Z</time></trkpt>
<trkpt lat="46.26528549" lon="7.03369522"><ele></ele><time>2014-6-1T19:25:31Z</time></trkpt>
<trkpt lat="46.26536179" lon="7.03394699"><ele></ele><time>2014-6-1T19:25:34Z</time></trkpt>
<trkpt lat="46.26552200" lon="7.03417683"><ele></ele><time>2014-6-1T19:25:37Z</time></trkpt>
<trkpt lat="46.26563644" lon="7.03440905"><ele></ele><time>2014-6-1T19:25:40Z</time></trkpt>
<trkpt lat="46.26567459" lon="7.03465796"><ele></ele><time>2014-6-1T19:25:43Z</time></trkpt>
<trkpt lat="46.26566696" lon="7.03497791"><ele></ele><time>2014-6-1T19:25:46Z</time></trkpt>
<trkpt lat="46.26566696" lon="7.03518486"><ele></ele><time>2014-6-1T19:25:49Z</time></trkpt>
<trkpt lat="46.26565170" lon="7.03542089"><ele></ele><time>2014-6-1T19:25:52Z</time></trkpt>
<trkpt lat="46.26569748" lon="7.03562212"><ele></ele><time>2014-6-1T19:25:55Z</time></trkpt>
<trkpt lat="46.26575089" lon="7.03585911"><ele></ele><time>2014-6-1T19:25:58Z</time></trkpt>
<trkpt lat="46.26581192" lon="7.03607416"><ele></ele><time>2014-6-1T19:26:1Z</time></trkpt>
<trkpt lat="46.26588058" lon="7.03626919"><ele></ele><time>2014-6-1T19:26:4Z</time></trkpt>
<trkpt lat="46.26597214" lon="7.03652096"><ele></ele><time>2014-6-1T19:26:7Z</time></trkpt>
<trkpt lat="46.26601028" lon="7.03666115"><ele></ele><time>2014-6-1T19:26:10Z</time></trkpt>
<trkpt lat="46.26602173" lon="7.03686619"><ele></ele><time>2014-6-1T19:26:13Z</time></trkpt>
<trkpt lat="46.26602173" lon="7.03701115"><ele></ele><time>2014-6-1T19:26:16Z</time></trkpt>
<trkpt lat="46.26603317" lon="7.03712606"><ele></ele><time>2014-6-1T19:26:19Z</time></trkpt>
<trkpt lat="46.26606750" lon="7.03727579"><ele></ele><time>2014-6-1T19:26:22Z</time></trkpt>
<trkpt lat="46.26606750" lon="7.03732586"><ele></ele><time>2014-6-1T19:26:25Z</time></trkpt>
<trkpt lat="46.26607895" lon="7.03753519"><ele></ele><time>2014-6-1T19:26:28Z</time></trkpt>
<trkpt lat="46.26607513" lon="7.03755522"><ele></ele><time>2014-6-1T19:26:31Z</time></trkpt>
<trkpt lat="46.26606369" lon="7.03772402"><ele></ele><time>2014-6-1T19:26:34Z</time></trkpt>
<trkpt lat="46.26604080" lon="7.03789091"><ele></ele><time>2014-6-1T19:26:37Z</time></trkpt>
<trkpt lat="46.26601791" lon="7.03808594"><ele></ele><time>2014-6-1T19:26:40Z</time></trkpt>
<trkpt lat="46.26597977" lon="7.03824615"><ele></ele><time>2014-6-1T19:26:43Z</time></trkpt>
<trkpt lat="46.26590729" lon="7.03845596"><ele></ele><time>2014-6-1T19:26:46Z</time></trkpt>
<trkpt lat="46.26580811" lon="7.03861618"><ele></ele><time>2014-6-1T19:26:49Z</time></trkpt>
<trkpt lat="46.26569366" lon="7.03880882"><ele></ele><time>2014-6-1T19:26:52Z</time></trkpt>
<trkpt lat="46.26567459" lon="7.03886414"><ele></ele><time>2014-6-1T19:26:55Z</time></trkpt>
<trkpt lat="46.26564026" lon="7.03894520"><ele></ele><time>2014-6-1T19:26:58Z</time></trkpt>
<trkpt lat="46.26557922" lon="7.03909492"><ele></ele><time>2014-6-1T19:27:1Z</time></trkpt>
<trkpt lat="46.26551056" lon="7.03929186"><ele></ele><time>2014-6-1T19:27:4Z</time></trkpt>
<trkpt lat="46.26539612" lon="7.03942013"><ele></ele><time>2014-6-1T19:27:7Z</time></trkpt>
<trkpt lat="46.26532364" lon="7.03948689"><ele></ele><time>2014-6-1T19:27:10Z</time></trkpt>
<trkpt lat="46.26524734" lon="7.03956223"><ele></ele><time>2014-6-1T19:27:13Z</time></trkpt>
<trkpt lat="46.26519012" lon="7.03969908"><ele></ele><time>2014-6-1T19:27:16Z</time></trkpt>
<trkpt lat="46.26517868" lon="7.03988886"><ele></ele><time>2014-6-1T19:27:19Z</time></trkpt>
<trkpt lat="46.26519394" lon="7.04006481"><ele></ele><time>2014-6-1T19:27:22Z</time></trkpt>
<trkpt lat="46.26518631" lon="7.04022408"><ele></ele><time>2014-6-1T19:27:25Z</time></trkpt>
<trkpt lat="46.26520538" lon="7.04040098"><ele></ele><time>2014-6-1T19:27:28Z</time></trkpt>
<trkpt lat="46.26524353" lon="7.04050589"><ele></ele><time>2014-6-1T19:27:31Z</time></trkpt>
<trkpt lat="46.26522827" lon="7.04068995"><ele></ele><time>2014-6-1T19:27:34Z</time></trkpt>
<trkpt lat="46.26521683" lon="7.04075003"><ele></ele><time>2014-6-1T19:27:37Z</time></trkpt>
<trkpt lat="46.26517868" lon="7.04093409"><ele></ele><time>2014-6-1T19:27:40Z</time></trkpt>
<trkpt lat="46.26515579" lon="7.04106379"><ele></ele><time>2014-6-1T19:27:43Z</time></trkpt>
<trkpt lat="46.26509476" lon="7.04126883"><ele></ele><time>2014-6-1T19:27:46Z</time></trkpt>
<trkpt lat="46.26503372" lon="7.04150105"><ele></ele><time>2014-6-1T19:27:49Z</time></trkpt>
<trkpt lat="46.26501846" lon="7.04166508"><ele></ele><time>2014-6-1T19:27:52Z</time></trkpt>
<trkpt lat="46.26508713" lon="7.04180098"><ele></ele><time>2014-6-1T19:27:55Z</time></trkpt>
<trkpt lat="46.26516724" lon="7.04195499"><ele></ele><time>2014-6-1T19:27:58Z</time></trkpt>
<trkpt lat="46.26520920" lon="7.04210281"><ele></ele><time>2014-6-1T19:28:1Z</time></trkpt>
<trkpt lat="46.26521301" lon="7.04214907"><ele></ele><time>2014-6-1T19:28:4Z</time></trkpt>
<trkpt lat="46.26517868" lon="7.04231405"><ele></ele><time>2014-6-1T19:28:7Z</time></trkpt>
<trkpt lat="46.26514053" lon="7.04249001"><ele></ele><time>2014-6-1T19:28:10Z</time></trkpt>
<trkpt lat="46.26511765" lon="7.04263878"><ele></ele><time>2014-6-1T19:28:13Z</time></trkpt>
<trkpt lat="46.26509857" lon="7.04267883"><ele></ele><time>2014-6-1T19:28:16Z</time></trkpt>
<trkpt lat="46.26502228" lon="7.04282093"><ele></ele><time>2014-6-1T19:28:19Z</time></trkpt>
<trkpt lat="46.26493835" lon="7.04292011"><ele></ele><time>2014-6-1T19:28:22Z</time></trkpt>
<trkpt lat="46.26488876" lon="7.04301214"><ele></ele><time>2014-6-1T19:28:25Z</time></trkpt>
<trkpt lat="46.26478577" lon="7.04317999"><ele></ele><time>2014-6-1T19:28:28Z</time></trkpt>
<trkpt lat="46.26467896" lon="7.04327822"><ele></ele><time>2014-6-1T19:28:31Z</time></trkpt>
<trkpt lat="46.26461411" lon="7.04334116"><ele></ele><time>2014-6-1T19:28:34Z</time></trkpt>
<trkpt lat="46.26452637" lon="7.04346991"><ele></ele><time>2014-6-1T19:28:37Z</time></trkpt>
<trkpt lat="46.26446152" lon="7.04366589"><ele></ele><time>2014-6-1T19:28:40Z</time></trkpt>
<trkpt lat="46.26440811" lon="7.04376078"><ele></ele><time>2014-6-1T19:28:43Z</time></trkpt>
<trkpt lat="46.26440048" lon="7.04377699"><ele></ele><time>2014-6-1T19:28:46Z</time></trkpt>
<trkpt lat="46.26439667" lon="7.04391098"><ele></ele><time>2014-6-1T19:28:49Z</time></trkpt>
<trkpt lat="46.26436615" lon="7.04401779"><ele></ele><time>2014-6-1T19:28:52Z</time></trkpt>
<trkpt lat="46.26437759" lon="7.04416418"><ele></ele><time>2014-6-1T19:28:55Z</time></trkpt>
<trkpt lat="46.26438522" lon="7.04418516"><ele></ele><time>2014-6-1T19:28:58Z</time></trkpt>
<trkpt lat="46.26435852" lon="7.04435301"><ele></ele><time>2014-6-1T19:29:1Z</time></trkpt>
<trkpt lat="46.26432800" lon="7.04447508"><ele></ele><time>2014-6-1T19:29:4Z</time></trkpt>
<trkpt lat="46.26432419" lon="7.04449177"><ele></ele><time>2014-6-1T19:29:7Z</time></trkpt>
<trkpt lat="46.26430511" lon="7.04458809"><ele></ele><time>2014-6-1T19:29:10Z</time></trkpt>
<trkpt lat="46.26431274" lon="7.04471922"><ele></ele><time>2014-6-1T19:29:13Z</time></trkpt>
<trkpt lat="46.26430511" lon="7.04473495"><ele></ele><time>2014-6-1T19:29:16Z</time></trkpt>
<trkpt lat="46.26427460" lon="7.04486609"><ele></ele><time>2014-6-1T19:29:19Z</time></trkpt>
<trkpt lat="46.26427078" lon="7.04488182"><ele></ele><time>2014-6-1T19:29:22Z</time></trkpt>
<trkpt lat="46.26426315" lon="7.04490709"><ele></ele><time>2014-6-1T19:29:25Z</time></trkpt>
<trkpt lat="46.26425934" lon="7.04494810"><ele></ele><time>2014-6-1T19:29:28Z</time></trkpt>
<trkpt lat="46.26419830" lon="7.04500914"><ele></ele><time>2014-6-1T19:29:31Z</time></trkpt>
<trkpt lat="46.26417542" lon="7.04505491"><ele></ele><time>2014-6-1T19:29:34Z</time></trkpt>
<trkpt lat="46.26416016" lon="7.04511023"><ele></ele><time>2014-6-1T19:29:37Z</time></trkpt>
<trkpt lat="46.26413727" lon="7.04523420"><ele></ele><time>2014-6-1T19:29:40Z</time></trkpt>
<trkpt lat="46.26416397" lon="7.04535294"><ele></ele><time>2014-6-1T19:29:43Z</time></trkpt>
<trkpt lat="46.26417160" lon="7.04541111"><ele></ele><time>2014-6-1T19:29:46Z</time></trkpt>
<trkpt lat="46.26419449" lon="7.04548216"><ele></ele><time>2014-6-1T19:29:49Z</time></trkpt>
<trkpt lat="46.26420212" lon="7.04565620"><ele></ele><time>2014-6-1T19:29:52Z</time></trkpt>
<trkpt lat="46.26419067" lon="7.04582024"><ele></ele><time>2014-6-1T19:29:55Z</time></trkpt>
<trkpt lat="46.26417542" lon="7.04585695"><ele></ele><time>2014-6-1T19:29:58Z</time></trkpt>
<trkpt lat="46.26417542" lon="7.04591513"><ele></ele><time>2014-6-1T19:30:1Z</time></trkpt>
<trkpt lat="46.26417542" lon="7.04603004"><ele></ele><time>2014-6-1T19:30:4Z</time></trkpt>
<trkpt lat="46.26418686" lon="7.04615593"><ele></ele><time>2014-6-1T19:30:7Z</time></trkpt>
<trkpt lat="46.26420593" lon="7.04627085"><ele></ele><time>2014-6-1T19:30:10Z</time></trkpt>
<trkpt lat="46.26422882" lon="7.04643297"><ele></ele><time>2014-6-1T19:30:13Z</time></trkpt>
<trkpt lat="46.26424789" lon="7.04658079"><ele></ele><time>2014-6-1T19:30:16Z</time></trkpt>
<trkpt lat="46.26425934" lon="7.04669189"><ele></ele><time>2014-6-1T19:30:19Z</time></trkpt>
<trkpt lat="46.26425552" lon="7.04676580"><ele></ele><time>2014-6-1T19:30:22Z</time></trkpt>
<trkpt lat="46.26425934" lon="7.04692411"><ele></ele><time>2014-6-1T19:30:25Z</time></trkpt>
<trkpt lat="46.26425552" lon="7.04695177"><ele></ele><time>2014-6-1T19:30:28Z</time></trkpt>
<trkpt lat="46.26426315" lon="7.04697704"><ele></ele><time>2014-6-1T19:30:31Z</time></trkpt>
<trkpt lat="46.26428604" lon="7.04704618"><ele></ele><time>2014-6-1T19:30:34Z</time></trkpt>
<trkpt lat="46.26432037" lon="7.04717398"><ele></ele><time>2014-6-1T19:30:37Z</time></trkpt>
<trkpt lat="46.26437759" lon="7.04735994"><ele></ele><time>2014-6-1T19:30:40Z</time></trkpt>
<trkpt lat="46.26440048" lon="7.04750204"><ele></ele><time>2014-6-1T19:30:43Z</time></trkpt>
<trkpt lat="46.26441956" lon="7.04763222"><ele></ele><time>2014-6-1T19:30:46Z</time></trkpt>
<trkpt lat="46.26445389" lon="7.04778004"><ele></ele><time>2014-6-1T19:30:49Z</time></trkpt>
<trkpt lat="46.26446152" lon="7.04790020"><ele></ele><time>2014-6-1T19:30:52Z</time></trkpt>
<trkpt lat="46.26448822" lon="7.04807281"><ele></ele><time>2014-6-1T19:30:55Z</time></trkpt>
<trkpt lat="46.26447678" lon="7.04812717"><ele></ele><time>2014-6-1T19:30:58Z</time></trkpt>
<trkpt lat="46.26443863" lon="7.04826689"><ele></ele><time>2014-6-1T19:31:1Z</time></trkpt>
<trkpt lat="46.26445007" lon="7.04833078"><ele></ele><time>2014-6-1T19:31:4Z</time></trkpt>
<trkpt lat="46.26440430" lon="7.04848480"><ele></ele><time>2014-6-1T19:31:7Z</time></trkpt>
<trkpt lat="46.26439667" lon="7.04852009"><ele></ele><time>2014-6-1T19:31:10Z</time></trkpt>
<trkpt lat="46.26438522" lon="7.04860306"><ele></ele><time>2014-6-1T19:31:13Z</time></trkpt>
<trkpt lat="46.26443100" lon="7.04872704"><ele></ele><time>2014-6-1T19:31:16Z</time></trkpt>
<trkpt lat="46.26443863" lon="7.04874992"><ele></ele><time>2014-6-1T19:31:19Z</time></trkpt>
<trkpt lat="46.26444626" lon="7.04895592"><ele></ele><time>2014-6-1T19:31:22Z</time></trkpt>
<trkpt lat="46.26441574" lon="7.04914379"><ele></ele><time>2014-6-1T19:31:25Z</time></trkpt>
<trkpt lat="46.26437759" lon="7.04925489"><ele></ele><time>2014-6-1T19:31:28Z</time></trkpt>
<trkpt lat="46.26433945" lon="7.04929686"><ele></ele><time>2014-6-1T19:31:31Z</time></trkpt>
<trkpt lat="46.26428986" lon="7.04928780"><ele></ele><time>2014-6-1T19:31:34Z</time></trkpt>
<trkpt lat="46.26420975" lon="7.04926205"><ele></ele><time>2014-6-1T19:31:37Z</time></trkpt>
<trkpt lat="46.26411057" lon="7.04925489"><ele></ele><time>2014-6-1T19:31:40Z</time></trkpt>
<trkpt lat="46.26408005" lon="7.04926682"><ele></ele><time>2014-6-1T19:31:43Z</time></trkpt>
<trkpt lat="46.26400375" lon="7.04937410"><ele></ele><time>2014-6-1T19:31:46Z</time></trkpt>
<trkpt lat="46.26391983" lon="7.04952097"><ele></ele><time>2014-6-1T19:31:49Z</time></trkpt>
<trkpt lat="46.26386642" lon="7.04960680"><ele></ele><time>2014-6-1T19:31:52Z</time></trkpt>
<trkpt lat="46.26384735" lon="7.04966116"><ele></ele><time>2014-6-1T19:31:55Z</time></trkpt>
<trkpt lat="46.26374817" lon="7.04973507"><ele></ele><time>2014-6-1T19:31:58Z</time></trkpt>
<trkpt lat="46.26366806" lon="7.04977894"><ele></ele><time>2014-6-1T19:32:1Z</time></trkpt>
<trkpt lat="46.26363754" lon="7.04980087"><ele></ele><time>2014-6-1T19:32:4Z</time></trkpt>
<trkpt lat="46.26357269" lon="7.04988194"><ele></ele><time>2014-6-1T19:32:7Z</time></trkpt>
<trkpt lat="46.26355743" lon="7.04992008"><ele></ele><time>2014-6-1T19:32:10Z</time></trkpt>
<trkpt lat="46.26354218" lon="7.04999304"><ele></ele><time>2014-6-1T19:32:13Z</time></trkpt>
<trkpt lat="46.26357269" lon="7.05006886"><ele></ele><time>2014-6-1T19:32:16Z</time></trkpt>
<trkpt lat="46.26361465" lon="7.05019712"><ele></ele><time>2014-6-1T19:32:19Z</time></trkpt>
<trkpt lat="46.26363754" lon="7.05029202"><ele></ele><time>2014-6-1T19:32:22Z</time></trkpt>
<trkpt lat="46.26364517" lon="7.05035496"><ele></ele><time>2014-6-1T19:32:25Z</time></trkpt>
<trkpt lat="46.26368713" lon="7.05050611"><ele></ele><time>2014-6-1T19:32:28Z</time></trkpt>
<trkpt lat="46.26371384" lon="7.05060482"><ele></ele><time>2014-6-1T19:32:31Z</time></trkpt>
<trkpt lat="46.26377106" lon="7.05068684"><ele></ele><time>2014-6-1T19:32:34Z</time></trkpt>
<trkpt lat="46.26385117" lon="7.05080318"><ele></ele><time>2014-6-1T19:32:37Z</time></trkpt>
<trkpt lat="46.26390076" lon="7.05090094"><ele></ele><time>2014-6-1T19:32:40Z</time></trkpt>
<trkpt lat="46.26393127" lon="7.05096912"><ele></ele><time>2014-6-1T19:32:43Z</time></trkpt>
<trkpt lat="46.26395035" lon="7.05102015"><ele></ele><time>2014-6-1T19:32:46Z</time></trkpt>
<trkpt lat="46.26401138" lon="7.05116701"><ele></ele><time>2014-6-1T19:32:49Z</time></trkpt>
<trkpt lat="46.26400757" lon="7.05119801"><ele></ele><time>2014-6-1T19:32:52Z</time></trkpt>
<trkpt lat="46.26407623" lon="7.05135679"><ele></ele><time>2014-6-1T19:32:55Z</time></trkpt>
<trkpt lat="46.26409149" lon="7.05138111"><ele></ele><time>2014-6-1T19:32:58Z</time></trkpt>
<trkpt lat="46.26419830" lon="7.05147600"><ele></ele><time>2014-6-1T19:33:1Z</time></trkpt>
<trkpt lat="46.26423645" lon="7.05157089"><ele></ele><time>2014-6-1T19:33:4Z</time></trkpt>
<trkpt lat="46.26430893" lon="7.05167389"><ele></ele><time>2014-6-1T19:33:7Z</time></trkpt>
<trkpt lat="46.26435471" lon="7.05177212"><ele></ele><time>2014-6-1T19:33:10Z</time></trkpt>
<trkpt lat="46.26441956" lon="7.05190182"><ele></ele><time>2014-6-1T19:33:13Z</time></trkpt>
<trkpt lat="46.26448822" lon="7.05201101"><ele></ele><time>2014-6-1T19:33:16Z</time></trkpt>
<trkpt lat="46.26453018" lon="7.05215693"><ele></ele><time>2014-6-1T19:33:19Z</time></trkpt>
<trkpt lat="46.26457596" lon="7.05228901"><ele></ele><time>2014-6-1T19:33:22Z</time></trkpt>
<trkpt lat="46.26458740" lon="7.05243397"><ele></ele><time>2014-6-1T19:33:25Z</time></trkpt>
<trkpt lat="46.26459122" lon="7.05251217"><ele></ele><time>2014-6-1T19:33:28Z</time></trkpt>
<trkpt lat="46.26457596" lon="7.05255795"><ele></ele><time>2014-6-1T19:33:31Z</time></trkpt>
<trkpt lat="46.26460266" lon="7.05262613"><ele></ele><time>2014-6-1T19:33:34Z</time></trkpt>
<trkpt lat="46.26460648" lon="7.05272722"><ele></ele><time>2014-6-1T19:33:37Z</time></trkpt>
<trkpt lat="46.26464462" lon="7.05280495"><ele></ele><time>2014-6-1T19:33:40Z</time></trkpt>
<trkpt lat="46.26465607" lon="7.05291224"><ele></ele><time>2014-6-1T19:33:43Z</time></trkpt>
<trkpt lat="46.26474762" lon="7.05301905"><ele></ele><time>2014-6-1T19:33:46Z</time></trkpt>
<trkpt lat="46.26476288" lon="7.05303383"><ele></ele><time>2014-6-1T19:33:49Z</time></trkpt>
<trkpt lat="46.26479340" lon="7.05317402"><ele></ele><time>2014-6-1T19:33:52Z</time></trkpt>
<trkpt lat="46.26478958" lon="7.05331802"><ele></ele><time>2014-6-1T19:33:55Z</time></trkpt>
<trkpt lat="46.26483917" lon="7.05341196"><ele></ele><time>2014-6-1T19:33:58Z</time></trkpt>
<trkpt lat="46.26485443" lon="7.05357695"><ele></ele><time>2014-6-1T19:34:1Z</time></trkpt>
<trkpt lat="46.26476669" lon="7.05372190"><ele></ele><time>2014-6-1T19:34:4Z</time></trkpt>
<trkpt lat="46.26480484" lon="7.05380678"><ele></ele><time>2014-6-1T19:34:7Z</time></trkpt>
<trkpt lat="46.26481628" lon="7.05381823"><ele></ele><time>2014-6-1T19:34:10Z</time></trkpt>
<trkpt lat="46.26485825" lon="7.05392313"><ele></ele><time>2014-6-1T19:34:13Z</time></trkpt>
<trkpt lat="46.26487732" lon="7.05397415"><ele></ele><time>2014-6-1T19:34:16Z</time></trkpt>
<trkpt lat="46.26493835" lon="7.05408812"><ele></ele><time>2014-6-1T19:34:19Z</time></trkpt>
<trkpt lat="46.26496124" lon="7.05414391"><ele></ele><time>2014-6-1T19:34:22Z</time></trkpt>
<trkpt lat="46.26504135" lon="7.05434990"><ele></ele><time>2014-6-1T19:34:25Z</time></trkpt>
<trkpt lat="46.26508331" lon="7.05446291"><ele></ele><time>2014-6-1T19:34:28Z</time></trkpt>
<trkpt lat="46.26513290" lon="7.05461121"><ele></ele><time>2014-6-1T19:34:31Z</time></trkpt>
<trkpt lat="46.26515961" lon="7.05473804"><ele></ele><time>2014-6-1T19:34:34Z</time></trkpt>
<trkpt lat="46.26520538" lon="7.05486917"><ele></ele><time>2014-6-1T19:34:37Z</time></trkpt>
<trkpt lat="46.26521683" lon="7.05492115"><ele></ele><time>2014-6-1T19:34:40Z</time></trkpt>
<trkpt lat="46.26526642" lon="7.05505896"><ele></ele><time>2014-6-1T19:34:43Z</time></trkpt>
<trkpt lat="46.26534653" lon="7.05524588"><ele></ele><time>2014-6-1T19:34:46Z</time></trkpt>
<trkpt lat="46.26543427" lon="7.05544090"><ele></ele><time>2014-6-1T19:34:49Z</time></trkpt>
<trkpt lat="46.26555634" lon="7.05562878"><ele></ele><time>2014-6-1T19:34:52Z</time></trkpt>
<trkpt lat="46.26566315" lon="7.05579519"><ele></ele><time>2014-6-1T19:34:55Z</time></trkpt>
<trkpt lat="46.26569748" lon="7.05584621"><ele></ele><time>2014-6-1T19:34:58Z</time></trkpt>
<trkpt lat="46.26576614" lon="7.05595016"><ele></ele><time>2014-6-1T19:35:1Z</time></trkpt>
<trkpt lat="46.26586533" lon="7.05613708"><ele></ele><time>2014-6-1T19:35:4Z</time></trkpt>
<trkpt lat="46.26593018" lon="7.05625582"><ele></ele><time>2014-6-1T19:35:7Z</time></trkpt>
<trkpt lat="46.26599121" lon="7.05633307"><ele></ele><time>2014-6-1T19:35:10Z</time></trkpt>
<trkpt lat="46.26605606" lon="7.05648279"><ele></ele><time>2014-6-1T19:35:13Z</time></trkpt>
<trkpt lat="46.26610565" lon="7.05663204"><ele></ele><time>2014-6-1T19:35:16Z</time></trkpt>
<trkpt lat="46.26616287" lon="7.05682516"><ele></ele><time>2014-6-1T19:35:19Z</time></trkpt>
<trkpt lat="46.26621628" lon="7.05700397"><ele></ele><time>2014-6-1T19:35:22Z</time></trkpt>
<trkpt lat="46.26623917" lon="7.05717182"><ele></ele><time>2014-6-1T19:35:25Z</time></trkpt>
<trkpt lat="46.26624680" lon="7.05732298"><ele></ele><time>2014-6-1T19:35:28Z</time></trkpt>
<trkpt lat="46.26623917" lon="7.05748320"><ele></ele><time>2014-6-1T19:35:31Z</time></trkpt>
<trkpt lat="46.26623154" lon="7.05750895"><ele></ele><time>2014-6-1T19:35:34Z</time></trkpt>
<trkpt lat="46.26623917" lon="7.05760193"><ele></ele><time>2014-6-1T19:35:37Z</time></trkpt>
<trkpt lat="46.26623535" lon="7.05771303"><ele></ele><time>2014-6-1T19:35:40Z</time></trkpt>
<trkpt lat="46.26621246" lon="7.05784321"><ele></ele><time>2014-6-1T19:35:43Z</time></trkpt>
<trkpt lat="46.26621628" lon="7.05795383"><ele></ele><time>2014-6-1T19:35:46Z</time></trkpt>
<trkpt lat="46.26621246" lon="7.05811119"><ele></ele><time>2014-6-1T19:35:49Z</time></trkpt>
<trkpt lat="46.26622009" lon="7.05817604"><ele></ele><time>2014-6-1T19:35:52Z</time></trkpt>
<trkpt lat="46.26623535" lon="7.05826283"><ele></ele><time>2014-6-1T19:35:55Z</time></trkpt>
<trkpt lat="46.26624680" lon="7.05834723"><ele></ele><time>2014-6-1T19:35:58Z</time></trkpt>
<trkpt lat="46.26630020" lon="7.05845118"><ele></ele><time>2014-6-1T19:36:1Z</time></trkpt>
<trkpt lat="46.26636124" lon="7.05849886"><ele></ele><time>2014-6-1T19:36:4Z</time></trkpt>
<trkpt lat="46.26643372" lon="7.05863619"><ele></ele><time>2014-6-1T19:36:7Z</time></trkpt>
<trkpt lat="46.26648712" lon="7.05884981"><ele></ele><time>2014-6-1T19:36:10Z</time></trkpt>
<trkpt lat="46.26647949" lon="7.05893612"><ele></ele><time>2014-6-1T19:36:13Z</time></trkpt>
<trkpt lat="46.26648331" lon="7.05901909"><ele></ele><time>2014-6-1T19:36:16Z</time></trkpt>
<trkpt lat="46.26648331" lon="7.05906582"><ele></ele><time>2014-6-1T19:36:19Z</time></trkpt>
<trkpt lat="46.26642227" lon="7.05922413"><ele></ele><time>2014-6-1T19:36:22Z</time></trkpt>
<trkpt lat="46.26638031" lon="7.05937099"><ele></ele><time>2014-6-1T19:36:25Z</time></trkpt>
<trkpt lat="46.26641083" lon="7.05942822"><ele></ele><time>2014-6-1T19:36:28Z</time></trkpt>
<trkpt lat="46.26642990" lon="7.05954695"><ele></ele><time>2014-6-1T19:36:31Z</time></trkpt>
<trkpt lat="46.26645279" lon="7.05979013"><ele></ele><time>2014-6-1T19:36:34Z</time></trkpt>
<trkpt lat="46.26646805" lon="7.05993605"><ele></ele><time>2014-6-1T19:36:37Z</time></trkpt>
<trkpt lat="46.26644135" lon="7.06012821"><ele></ele><time>2014-6-1T19:36:40Z</time></trkpt>
<trkpt lat="46.26641083" lon="7.06036806"><ele></ele><time>2014-6-1T19:36:43Z</time></trkpt>
<trkpt lat="46.26636505" lon="7.06060886"><ele></ele><time>2014-6-1T19:36:46Z</time></trkpt>
<trkpt lat="46.26626587" lon="7.06086922"><ele></ele><time>2014-6-1T19:36:49Z</time></trkpt>
<trkpt lat="46.26613998" lon="7.06110287"><ele></ele><time>2014-6-1T19:36:52Z</time></trkpt>
<trkpt lat="46.26602173" lon="7.06128979"><ele></ele><time>2014-6-1T19:36:55Z</time></trkpt>
<trkpt lat="46.26592255" lon="7.06127977"><ele></ele><time>2014-6-1T19:36:58Z</time></trkpt>
<trkpt lat="46.26585388" lon="7.06123495"><ele></ele><time>2014-6-1T19:37:1Z</time></trkpt>
<trkpt lat="46.26584244" lon="7.06124115"><ele></ele><time>2014-6-1T19:37:4Z</time></trkpt>
<trkpt lat="46.26585007" lon="7.06123400"><ele></ele><time>2014-6-1T19:37:7Z</time></trkpt>
<trkpt lat="46.26610947" lon="7.06117010"><ele></ele><time>2014-6-1T19:37:10Z</time></trkpt>
<trkpt lat="46.26610184" lon="7.06097078"><ele></ele><time>2014-6-1T19:37:13Z</time></trkpt>
<trkpt lat="46.26616669" lon="7.06072712"><ele></ele><time>2014-6-1T19:37:16Z</time></trkpt>
<trkpt lat="46.26617432" lon="7.06061220"><ele></ele><time>2014-6-1T19:37:19Z</time></trkpt>
<trkpt lat="46.26617050" lon="7.06050014"><ele></ele><time>2014-6-1T19:37:22Z</time></trkpt>
<trkpt lat="46.26613617" lon="7.06036711"><ele></ele><time>2014-6-1T19:37:25Z</time></trkpt>
<trkpt lat="46.26611328" lon="7.06028080"><ele></ele><time>2014-6-1T19:37:28Z</time></trkpt>
<trkpt lat="46.26610184" lon="7.06012487"><ele></ele><time>2014-6-1T19:37:31Z</time></trkpt>
<trkpt lat="46.26607132" lon="7.06000996"><ele></ele><time>2014-6-1T19:37:34Z</time></trkpt>
<trkpt lat="46.26605606" lon="7.05986404"><ele></ele><time>2014-6-1T19:37:37Z</time></trkpt>
<trkpt lat="46.26604843" lon="7.05976009"><ele></ele><time>2014-6-1T19:37:40Z</time></trkpt>
<trkpt lat="46.26603317" lon="7.05969715"><ele></ele><time>2014-6-1T19:37:43Z</time></trkpt>
<trkpt lat="46.26601410" lon="7.05963707"><ele></ele><time>2014-6-1T19:37:46Z</time></trkpt>
<trkpt lat="46.26599884" lon="7.05955410"><ele></ele><time>2014-6-1T19:37:49Z</time></trkpt>
<trkpt lat="46.26598358" lon="7.05942011"><ele></ele><time>2014-6-1T19:37:52Z</time></trkpt>
<trkpt lat="46.26597977" lon="7.05940294"><ele></ele><time>2014-6-1T19:37:55Z</time></trkpt>
<trkpt lat="46.26593399" lon="7.05924416"><ele></ele><time>2014-6-1T19:37:58Z</time></trkpt>
<trkpt lat="46.26586914" lon="7.05913591"><ele></ele><time>2014-6-1T19:38:1Z</time></trkpt>
<trkpt lat="46.26582336" lon="7.05904293"><ele></ele><time>2014-6-1T19:38:4Z</time></trkpt>
<trkpt lat="46.26573181" lon="7.05891323"><ele></ele><time>2014-6-1T19:38:7Z</time></trkpt>
<trkpt lat="46.26560211" lon="7.05885792"><ele></ele><time>2014-6-1T19:38:10Z</time></trkpt>
<trkpt lat="46.26547241" lon="7.05880022"><ele></ele><time>2014-6-1T19:38:13Z</time></trkpt>
<trkpt lat="46.26536179" lon="7.05876684"><ele></ele><time>2014-6-1T19:38:16Z</time></trkpt>
<trkpt lat="46.26521301" lon="7.05876112"><ele></ele><time>2014-6-1T19:38:19Z</time></trkpt>
<trkpt lat="46.26509094" lon="7.05880594"><ele></ele><time>2014-6-1T19:38:22Z</time></trkpt>
<trkpt lat="46.26496506" lon="7.05887890"><ele></ele><time>2014-6-1T19:38:25Z</time></trkpt>
<trkpt lat="46.26485062" lon="7.05894518"><ele></ele><time>2014-6-1T19:38:28Z</time></trkpt>
<trkpt lat="46.26474380" lon="7.05896997"><ele></ele><time>2014-6-1T19:38:31Z</time></trkpt>
<trkpt lat="46.26463318" lon="7.05895996"><ele></ele><time>2014-6-1T19:38:34Z</time></trkpt>
<trkpt lat="46.26451111" lon="7.05890512"><ele></ele><time>2014-6-1T19:38:37Z</time></trkpt>
<trkpt lat="46.26441956" lon="7.05885696"><ele></ele><time>2014-6-1T19:38:40Z</time></trkpt>
<trkpt lat="46.26426315" lon="7.05878592"><ele></ele><time>2014-6-1T19:38:43Z</time></trkpt>
<trkpt lat="46.26414871" lon="7.05872202"><ele></ele><time>2014-6-1T19:38:46Z</time></trkpt>
<trkpt lat="46.26413345" lon="7.05870581"><ele></ele><time>2014-6-1T19:38:49Z</time></trkpt>
<trkpt lat="46.26404190" lon="7.05872393"><ele></ele><time>2014-6-1T19:38:52Z</time></trkpt>
<trkpt lat="46.26399612" lon="7.05875683"><ele></ele><time>2014-6-1T19:38:55Z</time></trkpt>
<trkpt lat="46.26398087" lon="7.05892706"><ele></ele><time>2014-6-1T19:38:58Z</time></trkpt>
<trkpt lat="46.26398468" lon="7.05894899"><ele></ele><time>2014-6-1T19:39:1Z</time></trkpt>
<trkpt lat="46.26397705" lon="7.05918789"><ele></ele><time>2014-6-1T19:39:4Z</time></trkpt>
<trkpt lat="46.26397705" lon="7.05940723"><ele></ele><time>2014-6-1T19:39:7Z</time></trkpt>
<trkpt lat="46.26398468" lon="7.05964994"><ele></ele><time>2014-6-1T19:39:10Z</time></trkpt>
<trkpt lat="46.26398849" lon="7.05982208"><ele></ele><time>2014-6-1T19:39:13Z</time></trkpt>
<trkpt lat="46.26400375" lon="7.06010914"><ele></ele><time>2014-6-1T19:39:16Z</time></trkpt>
<trkpt lat="46.26401520" lon="7.06039476"><ele></ele><time>2014-6-1T19:39:19Z</time></trkpt>
<trkpt lat="46.26402283" lon="7.06061220"><ele></ele><time>2014-6-1T19:39:22Z</time></trkpt>
<trkpt lat="46.26401138" lon="7.06084013"><ele></ele><time>2014-6-1T19:39:25Z</time></trkpt>
<trkpt lat="46.26398087" lon="7.06102610"><ele></ele><time>2014-6-1T19:39:28Z</time></trkpt>
<trkpt lat="46.26395035" lon="7.06119013"><ele></ele><time>2014-6-1T19:39:31Z</time></trkpt>
<trkpt lat="46.26390457" lon="7.06144810"><ele></ele><time>2014-6-1T19:39:34Z</time></trkpt>
<trkpt lat="46.26385880" lon="7.06168413"><ele></ele><time>2014-6-1T19:39:37Z</time></trkpt>
<trkpt lat="46.26381302" lon="7.06192303"><ele></ele><time>2014-6-1T19:39:40Z</time></trkpt>
<trkpt lat="46.26374435" lon="7.06222391"><ele></ele><time>2014-6-1T19:39:43Z</time></trkpt>
<trkpt lat="46.26366806" lon="7.06244421"><ele></ele><time>2014-6-1T19:39:46Z</time></trkpt>
<trkpt lat="46.26356888" lon="7.06269884"><ele></ele><time>2014-6-1T19:39:49Z</time></trkpt>
<trkpt lat="46.26348495" lon="7.06291485"><ele></ele><time>2014-6-1T19:39:52Z</time></trkpt>
<trkpt lat="46.26341629" lon="7.06308222"><ele></ele><time>2014-6-1T19:39:55Z</time></trkpt>
<trkpt lat="46.26332474" lon="7.06331778"><ele></ele><time>2014-6-1T19:39:58Z</time></trkpt>
<trkpt lat="46.26324463" lon="7.06355810"><ele></ele><time>2014-6-1T19:40:1Z</time></trkpt>
<trkpt lat="46.26317596" lon="7.06380701"><ele></ele><time>2014-6-1T19:40:4Z</time></trkpt>
<trkpt lat="46.26314926" lon="7.06399584"><ele></ele><time>2014-6-1T19:40:7Z</time></trkpt>
<trkpt lat="46.26313400" lon="7.06420422"><ele></ele><time>2014-6-1T19:40:10Z</time></trkpt>
<trkpt lat="46.26311874" lon="7.06447792"><ele></ele><time>2014-6-1T19:40:13Z</time></trkpt>
<trkpt lat="46.26310730" lon="7.06470490"><ele></ele><time>2014-6-1T19:40:16Z</time></trkpt>
<trkpt lat="46.26306534" lon="7.06489706"><ele></ele><time>2014-6-1T19:40:19Z</time></trkpt>
<trkpt lat="46.26301193" lon="7.06503487"><ele></ele><time>2014-6-1T19:40:22Z</time></trkpt>
<trkpt lat="46.26292419" lon="7.06515980"><ele></ele><time>2014-6-1T19:40:25Z</time></trkpt>
<trkpt lat="46.26281357" lon="7.06528378"><ele></ele><time>2014-6-1T19:40:28Z</time></trkpt>
<trkpt lat="46.26268005" lon="7.06542110"><ele></ele><time>2014-6-1T19:40:31Z</time></trkpt>
<trkpt lat="46.26254272" lon="7.06557178"><ele></ele><time>2014-6-1T19:40:34Z</time></trkpt>
<trkpt lat="46.26246262" lon="7.06566477"><ele></ele><time>2014-6-1T19:40:37Z</time></trkpt>
<trkpt lat="46.26243973" lon="7.06569004"><ele></ele><time>2014-6-1T19:40:40Z</time></trkpt>
<trkpt lat="46.26234818" lon="7.06578398"><ele></ele><time>2014-6-1T19:40:43Z</time></trkpt>
<trkpt lat="46.26226425" lon="7.06588078"><ele></ele><time>2014-6-1T19:40:46Z</time></trkpt>
<trkpt lat="46.26216888" lon="7.06599522"><ele></ele><time>2014-6-1T19:40:49Z</time></trkpt>
<trkpt lat="46.26208496" lon="7.06611109"><ele></ele><time>2014-6-1T19:40:52Z</time></trkpt>
<trkpt lat="46.26201248" lon="7.06626511"><ele></ele><time>2014-6-1T19:40:55Z</time></trkpt>
<trkpt lat="46.26196671" lon="7.06636095"><ele></ele><time>2014-6-1T19:40:58Z</time></trkpt>
<trkpt lat="46.26191330" lon="7.06649017"><ele></ele><time>2014-6-1T19:41:1Z</time></trkpt>
<trkpt lat="46.26185226" lon="7.06663322"><ele></ele><time>2014-6-1T19:41:4Z</time></trkpt>
<trkpt lat="46.26179123" lon="7.06677485"><ele></ele><time>2014-6-1T19:41:7Z</time></trkpt>
<trkpt lat="46.26174164" lon="7.06690693"><ele></ele><time>2014-6-1T19:41:10Z</time></trkpt>
<trkpt lat="46.26168823" lon="7.06706190"><ele></ele><time>2014-6-1T19:41:13Z</time></trkpt>
<trkpt lat="46.26164246" lon="7.06722593"><ele></ele><time>2014-6-1T19:41:16Z</time></trkpt>
<trkpt lat="46.26161575" lon="7.06732702"><ele></ele><time>2014-6-1T19:41:19Z</time></trkpt>
<trkpt lat="46.26156998" lon="7.06745911"><ele></ele><time>2014-6-1T19:41:22Z</time></trkpt>
<trkpt lat="46.26148987" lon="7.06763411"><ele></ele><time>2014-6-1T19:41:25Z</time></trkpt>
<trkpt lat="46.26140976" lon="7.06776619"><ele></ele><time>2014-6-1T19:41:28Z</time></trkpt>
<trkpt lat="46.26132965" lon="7.06787920"><ele></ele><time>2014-6-1T19:41:31Z</time></trkpt>
<trkpt lat="46.26125717" lon="7.06798887"><ele></ele><time>2014-6-1T19:41:34Z</time></trkpt>
<trkpt lat="46.26118088" lon="7.06809711"><ele></ele><time>2014-6-1T19:41:37Z</time></trkpt>
<trkpt lat="46.26110840" lon="7.06821108"><ele></ele><time>2014-6-1T19:41:40Z</time></trkpt>
<trkpt lat="46.26102066" lon="7.06834221"><ele></ele><time>2014-6-1T19:41:43Z</time></trkpt>
<trkpt lat="46.26094055" lon="7.06848288"><ele></ele><time>2014-6-1T19:41:46Z</time></trkpt>
<trkpt lat="46.26084518" lon="7.06869698"><ele></ele><time>2014-6-1T19:41:49Z</time></trkpt>
<trkpt lat="46.26078033" lon="7.06888819"><ele></ele><time>2014-6-1T19:41:52Z</time></trkpt>
<trkpt lat="46.26072311" lon="7.06908321"><ele></ele><time>2014-6-1T19:41:55Z</time></trkpt>
<trkpt lat="46.26065445" lon="7.06925011"><ele></ele><time>2014-6-1T19:41:58Z</time></trkpt>
<trkpt lat="46.26055145" lon="7.06942511"><ele></ele><time>2014-6-1T19:42:1Z</time></trkpt>
<trkpt lat="46.26045227" lon="7.06956482"><ele></ele><time>2014-6-1T19:42:4Z</time></trkpt>
<trkpt lat="46.26034927" lon="7.06966305"><ele></ele><time>2014-6-1T19:42:7Z</time></trkpt>
<trkpt lat="46.26020813" lon="7.06976700"><ele></ele><time>2014-6-1T19:42:10Z</time></trkpt>
<trkpt lat="46.26014709" lon="7.06980419"><ele></ele><time>2014-6-1T19:42:13Z</time></trkpt>
<trkpt lat="46.26001358" lon="7.06985712"><ele></ele><time>2014-6-1T19:42:16Z</time></trkpt>
<trkpt lat="46.25988770" lon="7.06989288"><ele></ele><time>2014-6-1T19:42:19Z</time></trkpt>
<trkpt lat="46.25975418" lon="7.06993723"><ele></ele><time>2014-6-1T19:42:22Z</time></trkpt>
<trkpt lat="46.25960159" lon="7.06997585"><ele></ele><time>2014-6-1T19:42:25Z</time></trkpt>
<trkpt lat="46.25954437" lon="7.06999302"><ele></ele><time>2014-6-1T19:42:28Z</time></trkpt>
<trkpt lat="46.25950241" lon="7.07001019"><ele></ele><time>2014-6-1T19:42:31Z</time></trkpt>
<trkpt lat="46.25936508" lon="7.07004213"><ele></ele><time>2014-6-1T19:42:34Z</time></trkpt>
<trkpt lat="46.25927734" lon="7.07005882"><ele></ele><time>2014-6-1T19:42:37Z</time></trkpt>
<trkpt lat="46.25915146" lon="7.07008600"><ele></ele><time>2014-6-1T19:42:40Z</time></trkpt>
<trkpt lat="46.25899887" lon="7.07013178"><ele></ele><time>2014-6-1T19:42:43Z</time></trkpt>
<trkpt lat="46.25888062" lon="7.07017279"><ele></ele><time>2014-6-1T19:42:46Z</time></trkpt>
<trkpt lat="46.25875092" lon="7.07026005"><ele></ele><time>2014-6-1T19:42:49Z</time></trkpt>
<trkpt lat="46.25867844" lon="7.07035780"><ele></ele><time>2014-6-1T19:42:52Z</time></trkpt>
<trkpt lat="46.25862122" lon="7.07043982"><ele></ele><time>2014-6-1T19:42:55Z</time></trkpt>
<trkpt lat="46.25858688" lon="7.07051277"><ele></ele><time>2014-6-1T19:42:58Z</time></trkpt>
<trkpt lat="46.25854492" lon="7.07064581"><ele></ele><time>2014-6-1T19:43:1Z</time></trkpt>
<trkpt lat="46.25849915" lon="7.07085514"><ele></ele><time>2014-6-1T19:43:4Z</time></trkpt>
<trkpt lat="46.25841904" lon="7.07095909"><ele></ele><time>2014-6-1T19:43:7Z</time></trkpt>
<trkpt lat="46.25832367" lon="7.07101202"><ele></ele><time>2014-6-1T19:43:10Z</time></trkpt>
<trkpt lat="46.25818253" lon="7.07101011"><ele></ele><time>2014-6-1T19:43:13Z</time></trkpt>
<trkpt lat="46.25806808" lon="7.07095098"><ele></ele><time>2014-6-1T19:43:16Z</time></trkpt>
<trkpt lat="46.25799561" lon="7.07090187"><ele></ele><time>2014-6-1T19:43:19Z</time></trkpt>
<trkpt lat="46.25793457" lon="7.07084894"><ele></ele><time>2014-6-1T19:43:22Z</time></trkpt>
<trkpt lat="46.25780106" lon="7.07075882"><ele></ele><time>2014-6-1T19:43:25Z</time></trkpt>
<trkpt lat="46.25769806" lon="7.07068920"><ele></ele><time>2014-6-1T19:43:28Z</time></trkpt>
<trkpt lat="46.25755310" lon="7.07064009"><ele></ele><time>2014-6-1T19:43:31Z</time></trkpt>
<trkpt lat="46.25743866" lon="7.07067394"><ele></ele><time>2014-6-1T19:43:34Z</time></trkpt>
<trkpt lat="46.25734711" lon="7.07073498"><ele></ele><time>2014-6-1T19:43:37Z</time></trkpt>
<trkpt lat="46.25732040" lon="7.07079077"><ele></ele><time>2014-6-1T19:43:40Z</time></trkpt>
<trkpt lat="46.25728989" lon="7.07082701"><ele></ele><time>2014-6-1T19:43:43Z</time></trkpt>
<trkpt lat="46.25724411" lon="7.07092381"><ele></ele><time>2014-6-1T19:43:46Z</time></trkpt>
<trkpt lat="46.25720596" lon="7.07106018"><ele></ele><time>2014-6-1T19:43:49Z</time></trkpt>
<trkpt lat="46.25714874" lon="7.07118893"><ele></ele><time>2014-6-1T19:43:52Z</time></trkpt>
<trkpt lat="46.25704956" lon="7.07129908"><ele></ele><time>2014-6-1T19:43:55Z</time></trkpt>
<trkpt lat="46.25695038" lon="7.07143593"><ele></ele><time>2014-6-1T19:43:58Z</time></trkpt>
<trkpt lat="46.25690460" lon="7.07162285"><ele></ele><time>2014-6-1T19:44:1Z</time></trkpt>
<trkpt lat="46.25685883" lon="7.07175684"><ele></ele><time>2014-6-1T19:44:4Z</time></trkpt>
<trkpt lat="46.25680542" lon="7.07194901"><ele></ele><time>2014-6-1T19:44:7Z</time></trkpt>
<trkpt lat="46.25674438" lon="7.07208490"><ele></ele><time>2014-6-1T19:44:10Z</time></trkpt>
<trkpt lat="46.25669861" lon="7.07220697"><ele></ele><time>2014-6-1T19:44:13Z</time></trkpt>
<trkpt lat="46.25658798" lon="7.07233620"><ele></ele><time>2014-6-1T19:44:16Z</time></trkpt>
<trkpt lat="46.25650024" lon="7.07243776"><ele></ele><time>2014-6-1T19:44:19Z</time></trkpt>
<trkpt lat="46.25646591" lon="7.07253408"><ele></ele><time>2014-6-1T19:44:22Z</time></trkpt>
<trkpt lat="46.25637054" lon="7.07259607"><ele></ele><time>2014-6-1T19:44:25Z</time></trkpt>
<trkpt lat="46.25629807" lon="7.07268286"><ele></ele><time>2014-6-1T19:44:28Z</time></trkpt>
<trkpt lat="46.25627518" lon="7.07281494"><ele></ele><time>2014-6-1T19:44:31Z</time></trkpt>
<trkpt lat="46.25625229" lon="7.07295609"><ele></ele><time>2014-6-1T19:44:34Z</time></trkpt>
<trkpt lat="46.25617599" lon="7.07308722"><ele></ele><time>2014-6-1T19:44:37Z</time></trkpt>
<trkpt lat="46.25616074" lon="7.07319403"><ele></ele><time>2014-6-1T19:44:40Z</time></trkpt>
<trkpt lat="46.25615311" lon="7.07339001"><ele></ele><time>2014-6-1T19:44:43Z</time></trkpt>
<trkpt lat="46.25618362" lon="7.07351398"><ele></ele><time>2014-6-1T19:44:46Z</time></trkpt>
<trkpt lat="46.25617599" lon="7.07363510"><ele></ele><time>2014-6-1T19:44:49Z</time></trkpt>
<trkpt lat="46.25611115" lon="7.07375097"><ele></ele><time>2014-6-1T19:44:52Z</time></trkpt>
<trkpt lat="46.25603485" lon="7.07385015"><ele></ele><time>2014-6-1T19:44:55Z</time></trkpt>
<trkpt lat="46.25597382" lon="7.07397318"><ele></ele><time>2014-6-1T19:44:58Z</time></trkpt>
<trkpt lat="46.25593185" lon="7.07408285"><ele></ele><time>2014-6-1T19:45:1Z</time></trkpt>
<trkpt lat="46.25583649" lon="7.07418203"><ele></ele><time>2014-6-1T19:45:4Z</time></trkpt>
<trkpt lat="46.25576019" lon="7.07426119"><ele></ele><time>2014-6-1T19:45:7Z</time></trkpt>
<trkpt lat="46.25568771" lon="7.07435322"><ele></ele><time>2014-6-1T19:45:10Z</time></trkpt>
<trkpt lat="46.25563812" lon="7.07444811"><ele></ele><time>2014-6-1T19:45:13Z</time></trkpt>
<trkpt lat="46.25559616" lon="7.07452488"><ele></ele><time>2014-6-1T19:45:16Z</time></trkpt>
<trkpt lat="46.25556564" lon="7.07463121"><ele></ele><time>2014-6-1T19:45:19Z</time></trkpt>
<trkpt lat="46.25554276" lon="7.07470703"><ele></ele><time>2014-6-1T19:45:22Z</time></trkpt>
<trkpt lat="46.25552368" lon="7.07482481"><ele></ele><time>2014-6-1T19:45:25Z</time></trkpt>
<trkpt lat="46.25551987" lon="7.07483912"><ele></ele><time>2014-6-1T19:45:28Z</time></trkpt>
<trkpt lat="46.25550461" lon="7.07494879"><ele></ele><time>2014-6-1T19:45:31Z</time></trkpt>
<trkpt lat="46.25547028" lon="7.07501316"><ele></ele><time>2014-6-1T19:45:34Z</time></trkpt>
<trkpt lat="46.25542068" lon="7.07518005"><ele></ele><time>2014-6-1T19:45:37Z</time></trkpt>
<trkpt lat="46.25535965" lon="7.07531595"><ele></ele><time>2014-6-1T19:45:40Z</time></trkpt>
<trkpt lat="46.25527954" lon="7.07541323"><ele></ele><time>2014-6-1T19:45:43Z</time></trkpt>
<trkpt lat="46.25525665" lon="7.07543612"><ele></ele><time>2014-6-1T19:45:46Z</time></trkpt>
<trkpt lat="46.25521469" lon="7.07549095"><ele></ele><time>2014-6-1T19:45:49Z</time></trkpt>
<trkpt lat="46.25514984" lon="7.07563591"><ele></ele><time>2014-6-1T19:45:52Z</time></trkpt>
<trkpt lat="46.25511169" lon="7.07569885"><ele></ele><time>2014-6-1T19:45:55Z</time></trkpt>
<trkpt lat="46.25507736" lon="7.07574797"><ele></ele><time>2014-6-1T19:45:58Z</time></trkpt>
<trkpt lat="46.25505829" lon="7.07586622"><ele></ele><time>2014-6-1T19:46:1Z</time></trkpt>
<trkpt lat="46.25504303" lon="7.07588577"><ele></ele><time>2014-6-1T19:46:4Z</time></trkpt>
<trkpt lat="46.25499344" lon="7.07599688"><ele></ele><time>2014-6-1T19:46:7Z</time></trkpt>
<trkpt lat="46.25496292" lon="7.07614994"><ele></ele><time>2014-6-1T19:46:10Z</time></trkpt>
<trkpt lat="46.25495529" lon="7.07628107"><ele></ele><time>2014-6-1T19:46:13Z</time></trkpt>
<trkpt lat="46.25494766" lon="7.07644510"><ele></ele><time>2014-6-1T19:46:16Z</time></trkpt>
<trkpt lat="46.25492477" lon="7.07654476"><ele></ele><time>2014-6-1T19:46:19Z</time></trkpt>
<trkpt lat="46.25489044" lon="7.07665777"><ele></ele><time>2014-6-1T19:46:22Z</time></trkpt>
<trkpt lat="46.25485992" lon="7.07679987"><ele></ele><time>2014-6-1T19:46:25Z</time></trkpt>
<trkpt lat="46.25482941" lon="7.07691479"><ele></ele><time>2014-6-1T19:46:28Z</time></trkpt>
<trkpt lat="46.25479126" lon="7.07700920"><ele></ele><time>2014-6-1T19:46:31Z</time></trkpt>
<trkpt lat="46.25481415" lon="7.07710409"><ele></ele><time>2014-6-1T19:46:34Z</time></trkpt>
<trkpt lat="46.25477982" lon="7.07723188"><ele></ele><time>2014-6-1T19:46:37Z</time></trkpt>
<trkpt lat="46.25474548" lon="7.07736015"><ele></ele><time>2014-6-1T19:46:40Z</time></trkpt>
<trkpt lat="46.25470352" lon="7.07750893"><ele></ele><time>2014-6-1T19:46:43Z</time></trkpt>
<trkpt lat="46.25463867" lon="7.07762003"><ele></ele><time>2014-6-1T19:46:46Z</time></trkpt>
<trkpt lat="46.25460052" lon="7.07775784"><ele></ele><time>2014-6-1T19:46:49Z</time></trkpt>
<trkpt lat="46.25457764" lon="7.07792711"><ele></ele><time>2014-6-1T19:46:52Z</time></trkpt>
<trkpt lat="46.25459671" lon="7.07807398"><ele></ele><time>2014-6-1T19:46:55Z</time></trkpt>
<trkpt lat="46.25461578" lon="7.07821178"><ele></ele><time>2014-6-1T19:46:58Z</time></trkpt>
<trkpt lat="46.25464630" lon="7.07832098"><ele></ele><time>2014-6-1T19:47:1Z</time></trkpt>
<trkpt lat="46.25464630" lon="7.07844400"><ele></ele><time>2014-6-1T19:47:4Z</time></trkpt>
<trkpt lat="46.25466919" lon="7.07853985"><ele></ele><time>2014-6-1T19:47:7Z</time></trkpt>
<trkpt lat="46.25472641" lon="7.07862616"><ele></ele><time>2014-6-1T19:47:10Z</time></trkpt>
<trkpt lat="46.25476837" lon="7.07882404"><ele></ele><time>2014-6-1T19:47:13Z</time></trkpt>
<trkpt lat="46.25477982" lon="7.07894278"><ele></ele><time>2014-6-1T19:47:16Z</time></trkpt>
<trkpt lat="46.25476456" lon="7.07913399"><ele></ele><time>2014-6-1T19:47:19Z</time></trkpt>
<trkpt lat="46.25475311" lon="7.07925415"><ele></ele><time>2014-6-1T19:47:22Z</time></trkpt>
<trkpt lat="46.25469208" lon="7.07941484"><ele></ele><time>2014-6-1T19:47:25Z</time></trkpt>
<trkpt lat="46.25467300" lon="7.07959414"><ele></ele><time>2014-6-1T19:47:28Z</time></trkpt>
<trkpt lat="46.25466537" lon="7.07974815"><ele></ele><time>2014-6-1T19:47:31Z</time></trkpt>
<trkpt lat="46.25465012" lon="7.07985592"><ele></ele><time>2014-6-1T19:47:34Z</time></trkpt>
<trkpt lat="46.25460052" lon="7.08003521"><ele></ele><time>2014-6-1T19:47:37Z</time></trkpt>
<trkpt lat="46.25453949" lon="7.08019686"><ele></ele><time>2014-6-1T19:47:40Z</time></trkpt>
<trkpt lat="46.25447083" lon="7.08031416"><ele></ele><time>2014-6-1T19:47:43Z</time></trkpt>
<trkpt lat="46.25442505" lon="7.08048010"><ele></ele><time>2014-6-1T19:47:46Z</time></trkpt>
<trkpt lat="46.25443268" lon="7.08061886"><ele></ele><time>2014-6-1T19:47:49Z</time></trkpt>
<trkpt lat="46.25436401" lon="7.08077908"><ele></ele><time>2014-6-1T19:47:52Z</time></trkpt>
<trkpt lat="46.25434875" lon="7.08093119"><ele></ele><time>2014-6-1T19:47:55Z</time></trkpt>
<trkpt lat="46.25435638" lon="7.08116579"><ele></ele><time>2014-6-1T19:47:58Z</time></trkpt>
<trkpt lat="46.25437164" lon="7.08130884"><ele></ele><time>2014-6-1T19:48:1Z</time></trkpt>
<trkpt lat="46.25443649" lon="7.08141422"><ele></ele><time>2014-6-1T19:48:4Z</time></trkpt>
<trkpt lat="46.25452423" lon="7.08163977"><ele></ele><time>2014-6-1T19:48:7Z</time></trkpt>
<trkpt lat="46.25457382" lon="7.08181095"><ele></ele><time>2014-6-1T19:48:10Z</time></trkpt>
<trkpt lat="46.25466537" lon="7.08207798"><ele></ele><time>2014-6-1T19:48:13Z</time></trkpt>
<trkpt lat="46.25470352" lon="7.08225203"><ele></ele><time>2014-6-1T19:48:16Z</time></trkpt>
<trkpt lat="46.25479507" lon="7.08233786"><ele></ele><time>2014-6-1T19:48:19Z</time></trkpt>
<trkpt lat="46.25489426" lon="7.08231878"><ele></ele><time>2014-6-1T19:48:22Z</time></trkpt>
<trkpt lat="46.25498581" lon="7.08226395"><ele></ele><time>2014-6-1T19:48:25Z</time></trkpt>
<trkpt lat="46.25514221" lon="7.08227205"><ele></ele><time>2014-6-1T19:48:28Z</time></trkpt>
<trkpt lat="46.25534439" lon="7.08234310"><ele></ele><time>2014-6-1T19:48:31Z</time></trkpt>
<trkpt lat="46.25549316" lon="7.08244085"><ele></ele><time>2014-6-1T19:48:34Z</time></trkpt>
<trkpt lat="46.25556946" lon="7.08255816"><ele></ele><time>2014-6-1T19:48:37Z</time></trkpt>
<trkpt lat="46.25564575" lon="7.08272219"><ele></ele><time>2014-6-1T19:48:40Z</time></trkpt>
<trkpt lat="46.25569153" lon="7.08286381"><ele></ele><time>2014-6-1T19:48:43Z</time></trkpt>
<trkpt lat="46.25573730" lon="7.08296013"><ele></ele><time>2014-6-1T19:48:46Z</time></trkpt>
<trkpt lat="46.25580215" lon="7.08307219"><ele></ele><time>2014-6-1T19:48:49Z</time></trkpt>
<trkpt lat="46.25587463" lon="7.08323812"><ele></ele><time>2014-6-1T19:48:52Z</time></trkpt>
<trkpt lat="46.25593185" lon="7.08339691"><ele></ele><time>2014-6-1T19:48:55Z</time></trkpt>
<trkpt lat="46.25598526" lon="7.08354998"><ele></ele><time>2014-6-1T19:48:58Z</time></trkpt>
<trkpt lat="46.25596619" lon="7.08375597"><ele></ele><time>2014-6-1T19:49:1Z</time></trkpt>
<trkpt lat="46.25593185" lon="7.08389521"><ele></ele><time>2014-6-1T19:49:4Z</time></trkpt>
<trkpt lat="46.25587463" lon="7.08404016"><ele></ele><time>2014-6-1T19:49:7Z</time></trkpt>
<trkpt lat="46.25585556" lon="7.08420181"><ele></ele><time>2014-6-1T19:49:10Z</time></trkpt>
<trkpt lat="46.25593185" lon="7.08437586"><ele></ele><time>2014-6-1T19:49:13Z</time></trkpt>
<trkpt lat="46.25592041" lon="7.08457804"><ele></ele><time>2014-6-1T19:49:16Z</time></trkpt>
<trkpt lat="46.25585175" lon="7.08471918"><ele></ele><time>2014-6-1T19:49:19Z</time></trkpt>
<trkpt lat="46.25564575" lon="7.08485985"><ele></ele><time>2014-6-1T19:49:22Z</time></trkpt>
<trkpt lat="46.25546646" lon="7.08493185"><ele></ele><time>2014-6-1T19:49:25Z</time></trkpt>
<trkpt lat="46.25530624" lon="7.08502579"><ele></ele><time>2014-6-1T19:49:28Z</time></trkpt>
<trkpt lat="46.25524902" lon="7.08511782"><ele></ele><time>2014-6-1T19:49:31Z</time></trkpt>
<trkpt lat="46.25511169" lon="7.08526611"><ele></ele><time>2014-6-1T19:49:34Z</time></trkpt>
<trkpt lat="46.25489044" lon="7.08540487"><ele></ele><time>2014-6-1T19:49:37Z</time></trkpt>
<trkpt lat="46.25474930" lon="7.08552122"><ele></ele><time>2014-6-1T19:49:40Z</time></trkpt>
<trkpt lat="46.25468063" lon="7.08568478"><ele></ele><time>2014-6-1T19:49:43Z</time></trkpt>
<trkpt lat="46.25463867" lon="7.08581209"><ele></ele><time>2014-6-1T19:49:46Z</time></trkpt>
<trkpt lat="46.25458908" lon="7.08596182"><ele></ele><time>2014-6-1T19:49:49Z</time></trkpt>
<trkpt lat="46.25455475" lon="7.08613014"><ele></ele><time>2014-6-1T19:49:52Z</time></trkpt>
<trkpt lat="46.25453568" lon="7.08629513"><ele></ele><time>2014-6-1T19:49:55Z</time></trkpt>
<trkpt lat="46.25444794" lon="7.08649015"><ele></ele><time>2014-6-1T19:49:58Z</time></trkpt>
<trkpt lat="46.25437164" lon="7.08673906"><ele></ele><time>2014-6-1T19:50:1Z</time></trkpt>
<trkpt lat="46.25432587" lon="7.08699989"><ele></ele><time>2014-6-1T19:50:4Z</time></trkpt>
<trkpt lat="46.25432968" lon="7.08727598"><ele></ele><time>2014-6-1T19:50:7Z</time></trkpt>
<trkpt lat="46.25445175" lon="7.08750677"><ele></ele><time>2014-6-1T19:50:10Z</time></trkpt>
<trkpt lat="46.25455475" lon="7.08772087"><ele></ele><time>2014-6-1T19:50:13Z</time></trkpt>
<trkpt lat="46.25462341" lon="7.08791924"><ele></ele><time>2014-6-1T19:50:16Z</time></trkpt>
<trkpt lat="46.25463867" lon="7.08803415"><ele></ele><time>2014-6-1T19:50:19Z</time></trkpt>
<trkpt lat="46.25461960" lon="7.08823204"><ele></ele><time>2014-6-1T19:50:22Z</time></trkpt>
<trkpt lat="46.25457382" lon="7.08836317"><ele></ele><time>2014-6-1T19:50:25Z</time></trkpt>
<trkpt lat="46.25450134" lon="7.08857203"><ele></ele><time>2014-6-1T19:50:28Z</time></trkpt>
<trkpt lat="46.25445557" lon="7.08876324"><ele></ele><time>2014-6-1T19:50:31Z</time></trkpt>
<trkpt lat="46.25445557" lon="7.08894205"><ele></ele><time>2014-6-1T19:50:34Z</time></trkpt>
<trkpt lat="46.25449753" lon="7.08918190"><ele></ele><time>2014-6-1T19:50:37Z</time></trkpt>
<trkpt lat="46.25460815" lon="7.08943701"><ele></ele><time>2014-6-1T19:50:40Z</time></trkpt>
<trkpt lat="46.25469971" lon="7.08965921"><ele></ele><time>2014-6-1T19:50:43Z</time></trkpt>
<trkpt lat="46.25474548" lon="7.08987904"><ele></ele><time>2014-6-1T19:50:46Z</time></trkpt>
<trkpt lat="46.25481415" lon="7.08999681"><ele></ele><time>2014-6-1T19:50:49Z</time></trkpt>
<trkpt lat="46.25495148" lon="7.09009218"><ele></ele><time>2014-6-1T19:50:52Z</time></trkpt>
<trkpt lat="46.25512695" lon="7.09011078"><ele></ele><time>2014-6-1T19:50:55Z</time></trkpt>
<trkpt lat="46.25531769" lon="7.09017706"><ele></ele><time>2014-6-1T19:50:58Z</time></trkpt>
<trkpt lat="46.25548172" lon="7.09043884"><ele></ele><time>2014-6-1T19:51:1Z</time></trkpt>
<trkpt lat="46.25558472" lon="7.09071684"><ele></ele><time>2014-6-1T19:51:4Z</time></trkpt>
<trkpt lat="46.25559616" lon="7.09099579"><ele></ele><time>2014-6-1T19:51:7Z</time></trkpt>
<trkpt lat="46.25553894" lon="7.09134007"><ele></ele><time>2014-6-1T19:51:10Z</time></trkpt>
<trkpt lat="46.25557327" lon="7.09162617"><ele></ele><time>2014-6-1T19:51:13Z</time></trkpt>
<trkpt lat="46.25562668" lon="7.09184217"><ele></ele><time>2014-6-1T19:51:16Z</time></trkpt>
<trkpt lat="46.25568771" lon="7.09209394"><ele></ele><time>2014-6-1T19:51:19Z</time></trkpt>
<trkpt lat="46.25571060" lon="7.09230995"><ele></ele><time>2014-6-1T19:51:22Z</time></trkpt>
<trkpt lat="46.25572205" lon="7.09253788"><ele></ele><time>2014-6-1T19:51:25Z</time></trkpt>
<trkpt lat="46.25570297" lon="7.09276009"><ele></ele><time>2014-6-1T19:51:28Z</time></trkpt>
<trkpt lat="46.25563431" lon="7.09308720"><ele></ele><time>2014-6-1T19:51:31Z</time></trkpt>
<trkpt lat="46.25563812" lon="7.09328985"><ele></ele><time>2014-6-1T19:51:34Z</time></trkpt>
<trkpt lat="46.25564194" lon="7.09360123"><ele></ele><time>2014-6-1T19:51:37Z</time></trkpt>
<trkpt lat="46.25560379" lon="7.09382915"><ele></ele><time>2014-6-1T19:51:40Z</time></trkpt>
<trkpt lat="46.25554276" lon="7.09413385"><ele></ele><time>2014-6-1T19:51:43Z</time></trkpt>
<trkpt lat="46.25550461" lon="7.09435797"><ele></ele><time>2014-6-1T19:51:46Z</time></trkpt>
<trkpt lat="46.25546265" lon="7.09467506"><ele></ele><time>2014-6-1T19:51:49Z</time></trkpt>
<trkpt lat="46.25545120" lon="7.09471893"><ele></ele><time>2014-6-1T19:51:52Z</time></trkpt>
<trkpt lat="46.25537872" lon="7.09495592"><ele></ele><time>2014-6-1T19:51:55Z</time></trkpt>
<trkpt lat="46.25537491" lon="7.09500599"><ele></ele><time>2014-6-1T19:51:58Z</time></trkpt>
<trkpt lat="46.25533295" lon="7.09531498"><ele></ele><time>2014-6-1T19:52:1Z</time></trkpt>
<trkpt lat="46.25528336" lon="7.09547997"><ele></ele><time>2014-6-1T19:52:4Z</time></trkpt>
<trkpt lat="46.25521088" lon="7.09566212"><ele></ele><time>2014-6-1T19:52:7Z</time></trkpt>
<trkpt lat="46.25514984" lon="7.09586287"><ele></ele><time>2014-6-1T19:52:10Z</time></trkpt>
<trkpt lat="46.25511932" lon="7.09604120"><ele></ele><time>2014-6-1T19:52:13Z</time></trkpt>
<trkpt lat="46.25503922" lon="7.09617710"><ele></ele><time>2014-6-1T19:52:16Z</time></trkpt>
<trkpt lat="46.25494766" lon="7.09634304"><ele></ele><time>2014-6-1T19:52:19Z</time></trkpt>
<trkpt lat="46.25488281" lon="7.09649897"><ele></ele><time>2014-6-1T19:52:22Z</time></trkpt>
<trkpt lat="46.25477982" lon="7.09666586"><ele></ele><time>2014-6-1T19:52:25Z</time></trkpt>
<trkpt lat="46.25475311" lon="7.09678221"><ele></ele><time>2014-6-1T19:52:28Z</time></trkpt>
<trkpt lat="46.25468445" lon="7.09688997"><ele></ele><time>2014-6-1T19:52:31Z</time></trkpt>
<trkpt lat="46.25461578" lon="7.09700584"><ele></ele><time>2014-6-1T19:52:34Z</time></trkpt>
<trkpt lat="46.25447845" lon="7.09719276"><ele></ele><time>2014-6-1T19:52:37Z</time></trkpt>
<trkpt lat="46.25434113" lon="7.09743309"><ele></ele><time>2014-6-1T19:52:40Z</time></trkpt>
<trkpt lat="46.25419617" lon="7.09775591"><ele></ele><time>2014-6-1T19:52:43Z</time></trkpt>
<trkpt lat="46.25411606" lon="7.09793377"><ele></ele><time>2014-6-1T19:52:46Z</time></trkpt>
<trkpt lat="46.25407791" lon="7.09804106"><ele></ele><time>2014-6-1T19:52:49Z</time></trkpt>
<trkpt lat="46.25404739" lon="7.09813595"><ele></ele><time>2014-6-1T19:52:52Z</time></trkpt>
<trkpt lat="46.25403214" lon="7.09820890"><ele></ele><time>2014-6-1T19:52:55Z</time></trkpt>
<trkpt lat="46.25402069" lon="7.09832716"><ele></ele><time>2014-6-1T19:52:58Z</time></trkpt>
<trkpt lat="46.25403214" lon="7.09848404"><ele></ele><time>2014-6-1T19:53:1Z</time></trkpt>
<trkpt lat="46.25406265" lon="7.09862995"><ele></ele><time>2014-6-1T19:53:4Z</time></trkpt>
<trkpt lat="46.25406647" lon="7.09867811"><ele></ele><time>2014-6-1T19:53:7Z</time></trkpt>
<trkpt lat="46.25408554" lon="7.09892797"><ele></ele><time>2014-6-1T19:53:10Z</time></trkpt>
<trkpt lat="46.25406265" lon="7.09906816"><ele></ele><time>2014-6-1T19:53:13Z</time></trkpt>
<trkpt lat="46.25408936" lon="7.09923410"><ele></ele><time>2014-6-1T19:53:16Z</time></trkpt>
<trkpt lat="46.25411606" lon="7.09933281"><ele></ele><time>2014-6-1T19:53:19Z</time></trkpt>
<trkpt lat="46.25415039" lon="7.09957695"><ele></ele><time>2014-6-1T19:53:22Z</time></trkpt>
<trkpt lat="46.25416565" lon="7.09972477"><ele></ele><time>2014-6-1T19:53:25Z</time></trkpt>
<trkpt lat="46.25417328" lon="7.09974480"><ele></ele><time>2014-6-1T19:53:28Z</time></trkpt>
<trkpt lat="46.25425720" lon="7.09984493"><ele></ele><time>2014-6-1T19:53:31Z</time></trkpt>
<trkpt lat="46.25431824" lon="7.09997988"><ele></ele><time>2014-6-1T19:53:34Z</time></trkpt>
<trkpt lat="46.25436783" lon="7.10015678"><ele></ele><time>2014-6-1T19:53:37Z</time></trkpt>
<trkpt lat="46.25439453" lon="7.10022497"><ele></ele><time>2014-6-1T19:53:40Z</time></trkpt>
<trkpt lat="46.25447845" lon="7.10036898"><ele></ele><time>2014-6-1T19:53:43Z</time></trkpt>
<trkpt lat="46.25450134" lon="7.10044622"><ele></ele><time>2014-6-1T19:53:46Z</time></trkpt>
<trkpt lat="46.25448990" lon="7.10056400"><ele></ele><time>2014-6-1T19:53:49Z</time></trkpt>
<trkpt lat="46.25446701" lon="7.10063601"><ele></ele><time>2014-6-1T19:53:52Z</time></trkpt>
<trkpt lat="46.25444412" lon="7.10073185"><ele></ele><time>2014-6-1T19:53:55Z</time></trkpt>
<trkpt lat="46.25439072" lon="7.10083723"><ele></ele><time>2014-6-1T19:53:58Z</time></trkpt>
<trkpt lat="46.25426102" lon="7.10097313"><ele></ele><time>2014-6-1T19:54:1Z</time></trkpt>
<trkpt lat="46.25414658" lon="7.10107803"><ele></ele><time>2014-6-1T19:54:4Z</time></trkpt>
<trkpt lat="46.25407791" lon="7.10117722"><ele></ele><time>2014-6-1T19:54:7Z</time></trkpt>
<trkpt lat="46.25400925" lon="7.10123110"><ele></ele><time>2014-6-1T19:54:10Z</time></trkpt>
<trkpt lat="46.25399017" lon="7.10124397"><ele></ele><time>2014-6-1T19:54:13Z</time></trkpt>
<trkpt lat="46.25394821" lon="7.10129690"><ele></ele><time>2014-6-1T19:54:16Z</time></trkpt>
<trkpt lat="46.25386810" lon="7.10142517"><ele></ele><time>2014-6-1T19:54:19Z</time></trkpt>
<trkpt lat="46.25381088" lon="7.10164213"><ele></ele><time>2014-6-1T19:54:22Z</time></trkpt>
<trkpt lat="46.25380325" lon="7.10179996"><ele></ele><time>2014-6-1T19:54:25Z</time></trkpt>
<trkpt lat="46.25378799" lon="7.10188723"><ele></ele><time>2014-6-1T19:54:28Z</time></trkpt>
<trkpt lat="46.25355148" lon="7.10232401"><ele></ele><time>2014-6-1T19:54:31Z</time></trkpt>
<trkpt lat="46.25358582" lon="7.10241890"><ele></ele><time>2014-6-1T19:54:34Z</time></trkpt>
<trkpt lat="46.25359344" lon="7.10261011"><ele></ele><time>2014-6-1T19:54:37Z</time></trkpt>
<trkpt lat="46.25392151" lon="7.10374212"><ele></ele><time>2014-6-1T19:54:40Z</time></trkpt>
<trkpt lat="46.25407410" lon="7.10403013"><ele></ele><time>2014-6-1T19:54:43Z</time></trkpt>
<trkpt lat="46.25399399" lon="7.10410309"><ele></ele><time>2014-6-1T19:54:46Z</time></trkpt>
<trkpt lat="46.25396347" lon="7.10420084"><ele></ele><time>2014-6-1T19:54:49Z</time></trkpt>
<trkpt lat="46.25402451" lon="7.10428381"><ele></ele><time>2014-6-1T19:54:52Z</time></trkpt>
<trkpt lat="46.25386429" lon="7.10497904"><ele></ele><time>2014-6-1T19:54:55Z</time></trkpt>
<trkpt lat="46.25386047" lon="7.10509586"><ele></ele><time>2014-6-1T19:54:58Z</time></trkpt>
<trkpt lat="46.25386810" lon="7.10514879"><ele></ele><time>2014-6-1T19:55:1Z</time></trkpt>
<trkpt lat="46.25391006" lon="7.10529613"><ele></ele><time>2014-6-1T19:55:4Z</time></trkpt>
<trkpt lat="46.25389099" lon="7.10538292"><ele></ele><time>2014-6-1T19:55:7Z</time></trkpt>
<trkpt lat="46.25387955" lon="7.10555887"><ele></ele><time>2014-6-1T19:55:10Z</time></trkpt>
<trkpt lat="46.25391006" lon="7.10569477"><ele></ele><time>2014-6-1T19:55:13Z</time></trkpt>
<trkpt lat="46.25389862" lon="7.10581589"><ele></ele><time>2014-6-1T19:55:16Z</time></trkpt>
<trkpt lat="46.25386810" lon="7.10595417"><ele></ele><time>2014-6-1T19:55:19Z</time></trkpt>
<trkpt lat="46.25382233" lon="7.10611296"><ele></ele><time>2014-6-1T19:55:22Z</time></trkpt>
<trkpt lat="46.25379944" lon="7.10627985"><ele></ele><time>2014-6-1T19:55:25Z</time></trkpt>
<trkpt lat="46.25377655" lon="7.10640907"><ele></ele><time>2014-6-1T19:55:28Z</time></trkpt>
<trkpt lat="46.25376129" lon="7.10651588"><ele></ele><time>2014-6-1T19:55:31Z</time></trkpt>
<trkpt lat="46.25380325" lon="7.10668182"><ele></ele><time>2014-6-1T19:55:34Z</time></trkpt>
<trkpt lat="46.25378418" lon="7.10680294"><ele></ele><time>2014-6-1T19:55:37Z</time></trkpt>
<trkpt lat="46.25378036" lon="7.10685301"><ele></ele><time>2014-6-1T19:55:40Z</time></trkpt>
<trkpt lat="46.25369644" lon="7.10699701"><ele></ele><time>2014-6-1T19:55:43Z</time></trkpt>
<trkpt lat="46.25347519" lon="7.10717583"><ele></ele><time>2014-6-1T19:55:46Z</time></trkpt>
<trkpt lat="46.25338364" lon="7.10728693"><ele></ele><time>2014-6-1T19:55:49Z</time></trkpt>
<trkpt lat="46.25326538" lon="7.10740805"><ele></ele><time>2014-6-1T19:55:52Z</time></trkpt>
<trkpt lat="46.25322342" lon="7.10752678"><ele></ele><time>2014-6-1T19:55:55Z</time></trkpt>
<trkpt lat="46.25320435" lon="7.10759783"><ele></ele><time>2014-6-1T19:55:58Z</time></trkpt>
<trkpt lat="46.25320816" lon="7.10766792"><ele></ele><time>2014-6-1T19:56:1Z</time></trkpt>
<trkpt lat="46.25312424" lon="7.10782099"><ele></ele><time>2014-6-1T19:56:4Z</time></trkpt>
<trkpt lat="46.25307465" lon="7.10791683"><ele></ele><time>2014-6-1T19:56:7Z</time></trkpt>
<trkpt lat="46.25302124" lon="7.10800600"><ele></ele><time>2014-6-1T19:56:10Z</time></trkpt>
<trkpt lat="46.25302505" lon="7.10806513"><ele></ele><time>2014-6-1T19:56:13Z</time></trkpt>
<trkpt lat="46.25304413" lon="7.10817289"><ele></ele><time>2014-6-1T19:56:16Z</time></trkpt>
<trkpt lat="46.25310898" lon="7.10821486"><ele></ele><time>2014-6-1T19:56:19Z</time></trkpt>
<trkpt lat="46.25314331" lon="7.10833597"><ele></ele><time>2014-6-1T19:56:22Z</time></trkpt>
<trkpt lat="46.25315094" lon="7.10837984"><ele></ele><time>2014-6-1T19:56:25Z</time></trkpt>
<trkpt lat="46.25317383" lon="7.10845280"><ele></ele><time>2014-6-1T19:56:28Z</time></trkpt>
<trkpt lat="46.25310516" lon="7.10859394"><ele></ele><time>2014-6-1T19:56:31Z</time></trkpt>
<trkpt lat="46.25311279" lon="7.10869884"><ele></ele><time>2014-6-1T19:56:34Z</time></trkpt>
<trkpt lat="46.25314331" lon="7.10880709"><ele></ele><time>2014-6-1T19:56:37Z</time></trkpt>
<trkpt lat="46.25301361" lon="7.10892582"><ele></ele><time>2014-6-1T19:56:40Z</time></trkpt>
<trkpt lat="46.25302505" lon="7.10900688"><ele></ele><time>2014-6-1T19:56:43Z</time></trkpt>
<trkpt lat="46.25311661" lon="7.10910082"><ele></ele><time>2014-6-1T19:56:46Z</time></trkpt>
<trkpt lat="46.25329971" lon="7.10927105"><ele></ele><time>2014-6-1T19:56:49Z</time></trkpt>
<trkpt lat="46.25333023" lon="7.10929823"><ele></ele><time>2014-6-1T19:56:52Z</time></trkpt>
<trkpt lat="46.25336838" lon="7.10932207"><ele></ele><time>2014-6-1T19:56:55Z</time></trkpt>
<trkpt lat="46.25348282" lon="7.10937405"><ele></ele><time>2014-6-1T19:56:58Z</time></trkpt>
<trkpt lat="46.25351334" lon="7.10941505"><ele></ele><time>2014-6-1T19:57:1Z</time></trkpt>
<trkpt lat="46.25341797" lon="7.10946321"><ele></ele><time>2014-6-1T19:57:4Z</time></trkpt>
<trkpt lat="46.25336838" lon="7.10949707"><ele></ele><time>2014-6-1T19:57:7Z</time></trkpt>
<trkpt lat="46.25329590" lon="7.10950708"><ele></ele><time>2014-6-1T19:57:10Z</time></trkpt>
<trkpt lat="46.25317764" lon="7.10955381"><ele></ele><time>2014-6-1T19:57:13Z</time></trkpt>
<trkpt lat="46.25305176" lon="7.10960102"><ele></ele><time>2014-6-1T19:57:16Z</time></trkpt>
<trkpt lat="46.25298309" lon="7.10961580"><ele></ele><time>2014-6-1T19:57:19Z</time></trkpt>
<trkpt lat="46.25289154" lon="7.10959482"><ele></ele><time>2014-6-1T19:57:22Z</time></trkpt>
<trkpt lat="46.25281525" lon="7.10962105"><ele></ele><time>2014-6-1T19:57:25Z</time></trkpt>
<trkpt lat="46.25276947" lon="7.10963106"><ele></ele><time>2014-6-1T19:57:28Z</time></trkpt>
<trkpt lat="46.25273514" lon="7.10963917"><ele></ele><time>2014-6-1T19:57:31Z</time></trkpt>
<trkpt lat="46.25273514" lon="7.10963678"><ele></ele><time>2014-6-1T19:57:34Z</time></trkpt>
<trkpt lat="46.25267029" lon="7.10964918"><ele></ele><time>2014-6-1T19:57:37Z</time></trkpt>
<trkpt lat="46.25252533" lon="7.10965014"><ele></ele><time>2014-6-1T19:57:40Z</time></trkpt>
<trkpt lat="46.25239563" lon="7.10960293"><ele></ele><time>2014-6-1T19:57:43Z</time></trkpt>
<trkpt lat="46.25230026" lon="7.10951614"><ele></ele><time>2014-6-1T19:57:46Z</time></trkpt>
<trkpt lat="46.25230408" lon="7.10950422"><ele></ele><time>2014-6-1T19:57:49Z</time></trkpt>
<trkpt lat="46.25231552" lon="7.10945177"><ele></ele><time>2014-6-1T19:57:52Z</time></trkpt>
<trkpt lat="46.25230026" lon="7.10940218"><ele></ele><time>2014-6-1T19:57:55Z</time></trkpt>
<trkpt lat="46.25228119" lon="7.10939980"><ele></ele><time>2014-6-1T19:57:58Z</time></trkpt>
<trkpt lat="46.25222778" lon="7.10950279"><ele></ele><time>2014-6-1T19:58:1Z</time></trkpt>
<trkpt lat="46.25216293" lon="7.10958099"><ele></ele><time>2014-6-1T19:58:4Z</time></trkpt>
<trkpt lat="46.25212479" lon="7.10962582"><ele></ele><time>2014-6-1T19:58:7Z</time></trkpt>
<trkpt lat="46.25215912" lon="7.10968018"><ele></ele><time>2014-6-1T19:58:10Z</time></trkpt>
<trkpt lat="46.25218964" lon="7.10968208"><ele></ele><time>2014-6-1T19:58:13Z</time></trkpt>
<trkpt lat="46.25225830" lon="7.10971212"><ele></ele><time>2014-6-1T19:58:16Z</time></trkpt>
<trkpt lat="46.25232697" lon="7.10975122"><ele></ele><time>2014-6-1T19:58:19Z</time></trkpt>
<trkpt lat="46.25234985" lon="7.10976219"><ele></ele><time>2014-6-1T19:58:22Z</time></trkpt>
<trkpt lat="46.25246811" lon="7.10975504"><ele></ele><time>2014-6-1T19:58:25Z</time></trkpt>
<trkpt lat="46.25255966" lon="7.10974598"><ele></ele><time>2014-6-1T19:58:28Z</time></trkpt>
<trkpt lat="46.25266266" lon="7.10973978"><ele></ele><time>2014-6-1T19:58:31Z</time></trkpt>
<trkpt lat="46.25275803" lon="7.10982704"><ele></ele><time>2014-6-1T19:58:34Z</time></trkpt>
<trkpt lat="46.25280762" lon="7.10988617"><ele></ele><time>2014-6-1T19:58:37Z</time></trkpt>
<trkpt lat="46.25281906" lon="7.10991383"><ele></ele><time>2014-6-1T19:58:40Z</time></trkpt>
<trkpt lat="46.25286484" lon="7.10998297"><ele></ele><time>2014-6-1T19:58:43Z</time></trkpt>
<trkpt lat="46.25291443" lon="7.11008310"><ele></ele><time>2014-6-1T19:58:46Z</time></trkpt>
<trkpt lat="46.25300217" lon="7.11015892"><ele></ele><time>2014-6-1T19:58:49Z</time></trkpt>
<trkpt lat="46.25302124" lon="7.11020613"><ele></ele><time>2014-6-1T19:58:52Z</time></trkpt>
<trkpt lat="46.25304031" lon="7.11021709"><ele></ele><time>2014-6-1T19:58:55Z</time></trkpt>
<trkpt lat="46.25309372" lon="7.11032486"><ele></ele><time>2014-6-1T19:58:58Z</time></trkpt>
<trkpt lat="46.25309753" lon="7.11033916"><ele></ele><time>2014-6-1T19:59:1Z</time></trkpt>
<trkpt lat="46.25307846" lon="7.11046791"><ele></ele><time>2014-6-1T19:59:4Z</time></trkpt>
<trkpt lat="46.25305557" lon="7.11063194"><ele></ele><time>2014-6-1T19:59:7Z</time></trkpt>
<trkpt lat="46.25305176" lon="7.11075115"><ele></ele><time>2014-6-1T19:59:10Z</time></trkpt>
<trkpt lat="46.25307846" lon="7.11087322"><ele></ele><time>2014-6-1T19:59:13Z</time></trkpt>
<trkpt lat="46.25307083" lon="7.11092710"><ele></ele><time>2014-6-1T19:59:16Z</time></trkpt>
<trkpt lat="46.25304031" lon="7.11102486"><ele></ele><time>2014-6-1T19:59:19Z</time></trkpt>
<trkpt lat="46.25302505" lon="7.11106110"><ele></ele><time>2014-6-1T19:59:22Z</time></trkpt>
<trkpt lat="46.25288391" lon="7.11113024"><ele></ele><time>2014-6-1T19:59:25Z</time></trkpt>
<trkpt lat="46.25270081" lon="7.11109400"><ele></ele><time>2014-6-1T19:59:28Z</time></trkpt>
<trkpt lat="46.25258255" lon="7.11106920"><ele></ele><time>2014-6-1T19:59:31Z</time></trkpt>
<trkpt lat="46.25248718" lon="7.11100721"><ele></ele><time>2014-6-1T19:59:34Z</time></trkpt>
<trkpt lat="46.25237274" lon="7.11093807"><ele></ele><time>2014-6-1T19:59:37Z</time></trkpt>
<trkpt lat="46.25222015" lon="7.11083794"><ele></ele><time>2014-6-1T19:59:40Z</time></trkpt>
<trkpt lat="46.25210571" lon="7.11072922"><ele></ele><time>2014-6-1T19:59:43Z</time></trkpt>
<trkpt lat="46.25200653" lon="7.11060715"><ele></ele><time>2014-6-1T19:59:46Z</time></trkpt>
<trkpt lat="46.25198364" lon="7.11056900"><ele></ele><time>2014-6-1T19:59:49Z</time></trkpt>
<trkpt lat="46.25193787" lon="7.11062384"><ele></ele><time>2014-6-1T19:59:52Z</time></trkpt>
<trkpt lat="46.25197983" lon="7.11066389"><ele></ele><time>2014-6-1T19:59:55Z</time></trkpt>
<trkpt lat="46.25210571" lon="7.11074877"><ele></ele><time>2014-6-1T19:59:58Z</time></trkpt>
<trkpt lat="46.25218201" lon="7.11080503"><ele></ele><time>2014-6-1T20:0:1Z</time></trkpt>
<trkpt lat="46.25249863" lon="7.11098623"><ele></ele><time>2014-6-1T20:0:4Z</time></trkpt>
<trkpt lat="46.25273514" lon="7.11108780"><ele></ele><time>2014-6-1T20:0:7Z</time></trkpt>
<trkpt lat="46.25289536" lon="7.11111879"><ele></ele><time>2014-6-1T20:0:10Z</time></trkpt>
<trkpt lat="46.25289917" lon="7.11133623"><ele></ele><time>2014-6-1T20:0:13Z</time></trkpt>
<trkpt lat="46.25282669" lon="7.11148787"><ele></ele><time>2014-6-1T20:0:16Z</time></trkpt>
<trkpt lat="46.25277710" lon="7.11174297"><ele></ele><time>2014-6-1T20:0:19Z</time></trkpt>
<trkpt lat="46.25278091" lon="7.11181211"><ele></ele><time>2014-6-1T20:0:22Z</time></trkpt>
<trkpt lat="46.25299835" lon="7.11196518"><ele></ele><time>2014-6-1T20:0:25Z</time></trkpt>
<trkpt lat="46.25304413" lon="7.11216402"><ele></ele><time>2014-6-1T20:0:28Z</time></trkpt>
<trkpt lat="46.25312042" lon="7.11228609"><ele></ele><time>2014-6-1T20:0:31Z</time></trkpt>
<trkpt lat="46.25315475" lon="7.11230993"><ele></ele><time>2014-6-1T20:0:34Z</time></trkpt>
<trkpt lat="46.25328827" lon="7.11254883"><ele></ele><time>2014-6-1T20:0:37Z</time></trkpt>
<trkpt lat="46.25339508" lon="7.11271811"><ele></ele><time>2014-6-1T20:0:40Z</time></trkpt>
<trkpt lat="46.25359726" lon="7.11289787"><ele></ele><time>2014-6-1T20:0:43Z</time></trkpt>
<trkpt lat="46.25360489" lon="7.11292315"><ele></ele><time>2014-6-1T20:0:46Z</time></trkpt>
<trkpt lat="46.25354385" lon="7.11282587"><ele></ele><time>2014-6-1T20:0:49Z</time></trkpt>
<trkpt lat="46.25353622" lon="7.11280203"><ele></ele><time>2014-6-1T20:0:52Z</time></trkpt>
<trkpt lat="46.25352478" lon="7.11266088"><ele></ele><time>2014-6-1T20:0:55Z</time></trkpt>
<trkpt lat="46.25351715" lon="7.11252785"><ele></ele><time>2014-6-1T20:0:58Z</time></trkpt>
<trkpt lat="46.25360870" lon="7.11245394"><ele></ele><time>2014-6-1T20:1:1Z</time></trkpt>
<trkpt lat="46.25391769" lon="7.11226177"><ele></ele><time>2014-6-1T20:1:4Z</time></trkpt>
<trkpt lat="46.25395966" lon="7.11222076"><ele></ele><time>2014-6-1T20:1:7Z</time></trkpt>
<trkpt lat="46.25397491" lon="7.11217785"><ele></ele><time>2014-6-1T20:1:10Z</time></trkpt>
<trkpt lat="46.25403214" lon="7.11214781"><ele></ele><time>2014-6-1T20:1:13Z</time></trkpt>
<trkpt lat="46.25407410" lon="7.11209917"><ele></ele><time>2014-6-1T20:1:16Z</time></trkpt>
<trkpt lat="46.25406647" lon="7.11209822"><ele></ele><time>2014-6-1T20:1:19Z</time></trkpt>
</trkseg></trk></gpx>